<?xml version="1.0" encoding="UTF-8"?>
<gpx version="1.1" creator="2bulu-scraper" xmlns="http://www.topografix.com/GPX/1/1">
  <metadata><name>自贡荣县</name><desc>source: 2bulu.com trackId=77769759; exported 2026-09-01T14:59:26.012Z</desc>
    <bounds minlat="29.4921397" minlon="104.326005" maxlat="29.5126674" maxlon="104.3492533"/>
    <link href="https://www.2bulu.com/track/t-OTZHPVgxXEbp%252FR2KBg5Tzw%253D%253D.htm"><text>2bulu 源页面</text></link>
  </metadata>
  <wpt lat="29.4978831" lon="104.3467362"><ele>674</ele><name>出发400米大空地
        </name></wpt>
  <wpt lat="29.4978398" lon="104.3465124"><ele>674</ele><name>池塘
        </name></wpt>
  <wpt lat="29.4973551" lon="104.3452479"><ele>669</ele><name>
        </name></wpt>
  <wpt lat="29.4964869" lon="104.3451454"><ele>669</ele><name>
        </name></wpt>
  <wpt lat="29.4952013" lon="104.3445004"><ele>654</ele><name>
        </name></wpt>
  <wpt lat="29.4951123" lon="104.3444643"><ele>653</ele><name>
        </name></wpt>
  <wpt lat="29.4926958" lon="104.3425491"><ele>626</ele><name>
        </name></wpt>
  <wpt lat="29.4928274" lon="104.3425525"><ele>617</ele><name>
        </name></wpt>
  <wpt lat="29.493766" lon="104.3429627"><ele>600</ele><name>
        </name></wpt>
  <wpt lat="29.4957765" lon="104.3437538"><ele>598</ele><name>
        </name></wpt>
  <wpt lat="29.497543" lon="104.344264"><ele>589</ele><name>
        </name></wpt>
  <wpt lat="29.497543" lon="104.344264"><ele>589</ele><name>
        </name></wpt>
  <wpt lat="29.497543" lon="104.344264"><ele>589</ele><name>
        </name></wpt>
  <wpt lat="29.4981514" lon="104.3438095"><ele>560</ele><name>
        </name></wpt>
  <wpt lat="29.4984001" lon="104.3434321"><ele>550</ele><name>
        </name></wpt>
  <wpt lat="29.4986346" lon="104.3431487"><ele>550</ele><name>
        </name></wpt>
  <wpt lat="29.4992871" lon="104.3408784"><ele>572</ele><name>
        </name></wpt>
  <wpt lat="29.4985279" lon="104.3405866"><ele>602</ele><name>
        </name></wpt>
  <wpt lat="29.4979353" lon="104.33899"><ele>621</ele><name>
        </name></wpt>
  <wpt lat="29.4996241" lon="104.3391279"><ele>657</ele><name>
        </name></wpt>
  <wpt lat="29.5010178" lon="104.3384002"><ele>673</ele><name>从大路绕行到这
        </name></wpt>
  <wpt lat="29.5010178" lon="104.3384002"><ele>673</ele><name>
        </name></wpt>
  <wpt lat="29.501706" lon="104.3354273"><ele>692</ele><name>
        </name></wpt>
  <wpt lat="29.5025536" lon="104.3342969"><ele>697</ele><name>
        </name></wpt>
  <wpt lat="29.5086501" lon="104.3343368"><ele>774</ele><name>
        </name></wpt>
  <wpt lat="29.511306" lon="104.3299401"><ele>795</ele><name>
        </name></wpt>
  <wpt lat="29.5081585" lon="104.3276943"><ele>788</ele><name>
        </name></wpt>
  <wpt lat="29.5041164" lon="104.3266999"><ele>721</ele><name>
        </name></wpt>
  <wpt lat="29.5025519" lon="104.3268772"><ele>651</ele><name>
        </name></wpt>
  <wpt lat="29.4993004" lon="104.3492533"><ele>658</ele><name>
        </name></wpt>
  <trk><name>自贡荣县</name>
      <trkseg>
        <trkpt lat="29.4978831" lon="104.3467362"><ele>674.44</ele><time>2026-01-13T18:02:54.000Z</time></trkpt>
        <trkpt lat="29.4978592" lon="104.3466262"><ele>674.44</ele><time>2026-01-13T18:03:32.000Z</time></trkpt>
        <trkpt lat="29.4978398" lon="104.3465124"><ele>674.51</ele><time>2026-01-13T18:03:46.000Z</time></trkpt>
        <trkpt lat="29.4978418" lon="104.3463978"><ele>674.48</ele><time>2026-01-13T18:04:02.000Z</time></trkpt>
        <trkpt lat="29.4978373" lon="104.346282"><ele>674.42</ele><time>2026-01-13T18:04:12.000Z</time></trkpt>
        <trkpt lat="29.4977744" lon="104.3461657"><ele>673.6</ele><time>2026-01-13T18:04:20.000Z</time></trkpt>
        <trkpt lat="29.4976787" lon="104.3460703"><ele>673.6</ele><time>2026-01-13T18:04:24.000Z</time></trkpt>
        <trkpt lat="29.4975844" lon="104.3459982"><ele>673.74</ele><time>2026-01-13T18:04:28.000Z</time></trkpt>
        <trkpt lat="29.4974903" lon="104.3459305"><ele>673.69</ele><time>2026-01-13T18:04:32.000Z</time></trkpt>
        <trkpt lat="29.4974365" lon="104.3458211"><ele>673.64</ele><time>2026-01-13T18:04:36.000Z</time></trkpt>
        <trkpt lat="29.4974072" lon="104.3456795"><ele>673.77</ele><time>2026-01-13T18:04:40.000Z</time></trkpt>
        <trkpt lat="29.4973937" lon="104.3455511"><ele>673.8</ele><time>2026-01-13T18:04:44.000Z</time></trkpt>
        <trkpt lat="29.4973786" lon="104.3454265"><ele>673.61</ele><time>2026-01-13T18:04:48.000Z</time></trkpt>
        <trkpt lat="29.4973402" lon="104.3453214"><ele>673.39</ele><time>2026-01-13T18:04:52.000Z</time></trkpt>
        <trkpt lat="29.4973551" lon="104.3452479"><ele>673.13</ele><time>2026-01-13T18:05:04.000Z</time></trkpt>
        <trkpt lat="29.4972851" lon="104.3452529"><ele>671.55</ele><time>2026-01-13T18:05:44.000Z</time></trkpt>
        <trkpt lat="29.4971843" lon="104.3452526"><ele>670.21</ele><time>2026-01-13T18:05:56.000Z</time></trkpt>
        <trkpt lat="29.49708" lon="104.3452392"><ele>669.4</ele><time>2026-01-13T18:06:06.000Z</time></trkpt>
        <trkpt lat="29.4969723" lon="104.3452498"><ele>669.65</ele><time>2026-01-13T18:06:18.000Z</time></trkpt>
        <trkpt lat="29.4968666" lon="104.3452654"><ele>670.08</ele><time>2026-01-13T18:06:28.000Z</time></trkpt>
        <trkpt lat="29.4967672" lon="104.3452661"><ele>670.03</ele><time>2026-01-13T18:06:38.000Z</time></trkpt>
        <trkpt lat="29.4966662" lon="104.3452484"><ele>670.29</ele><time>2026-01-13T18:06:50.000Z</time></trkpt>
        <trkpt lat="29.496572" lon="104.3451979"><ele>670.03</ele><time>2026-01-13T18:07:00.000Z</time></trkpt>
        <trkpt lat="29.4964869" lon="104.3451454"><ele>670.08</ele><time>2026-01-13T18:07:10.000Z</time></trkpt>
        <trkpt lat="29.4964363" lon="104.3450561"><ele>669.66</ele><time>2026-01-13T18:07:20.000Z</time></trkpt>
        <trkpt lat="29.4964165" lon="104.3449363"><ele>668.78</ele><time>2026-01-13T18:07:30.000Z</time></trkpt>
        <trkpt lat="29.4964001" lon="104.3448159"><ele>667.88</ele><time>2026-01-13T18:07:40.000Z</time></trkpt>
        <trkpt lat="29.4963629" lon="104.3447145"><ele>667.32</ele><time>2026-01-13T18:07:52.000Z</time></trkpt>
        <trkpt lat="29.4962838" lon="104.3446467"><ele>666.98</ele><time>2026-01-13T18:08:02.000Z</time></trkpt>
        <trkpt lat="29.4961881" lon="104.3446152"><ele>666.76</ele><time>2026-01-13T18:08:12.000Z</time></trkpt>
        <trkpt lat="29.496082" lon="104.3445869"><ele>666</ele><time>2026-01-13T18:08:26.000Z</time></trkpt>
        <trkpt lat="29.4959818" lon="104.3445691"><ele>664.89</ele><time>2026-01-13T18:08:38.000Z</time></trkpt>
        <trkpt lat="29.495885" lon="104.3445532"><ele>664.49</ele><time>2026-01-13T18:08:48.000Z</time></trkpt>
        <trkpt lat="29.4957867" lon="104.3445614"><ele>663.95</ele><time>2026-01-13T18:08:58.000Z</time></trkpt>
        <trkpt lat="29.4956916" lon="104.3445683"><ele>662.97</ele><time>2026-01-13T18:09:06.000Z</time></trkpt>
        <trkpt lat="29.495594" lon="104.344566"><ele>661.84</ele><time>2026-01-13T18:09:14.000Z</time></trkpt>
        <trkpt lat="29.4954994" lon="104.3445461"><ele>661.12</ele><time>2026-01-13T18:09:28.000Z</time></trkpt>
        <trkpt lat="29.4954013" lon="104.3445208"><ele>659.93</ele><time>2026-01-13T18:09:38.000Z</time></trkpt>
        <trkpt lat="29.4953005" lon="104.3445061"><ele>658.48</ele><time>2026-01-13T18:09:48.000Z</time></trkpt>
        <trkpt lat="29.4952013" lon="104.3445004"><ele>657.08</ele><time>2026-01-13T18:10:00.000Z</time></trkpt>
        <trkpt lat="29.4951123" lon="104.3444643"><ele>655.73</ele><time>2026-01-13T18:10:14.000Z</time></trkpt>
        <trkpt lat="29.4950155" lon="104.3444582"><ele>654.62</ele><time>2026-01-13T18:10:30.000Z</time></trkpt>
        <trkpt lat="29.4949283" lon="104.3444903"><ele>653.74</ele><time>2026-01-13T18:10:38.000Z</time></trkpt>
        <trkpt lat="29.4948601" lon="104.3445625"><ele>652.9</ele><time>2026-01-13T18:10:46.000Z</time></trkpt>
        <trkpt lat="29.4947808" lon="104.3446164"><ele>652.14</ele><time>2026-01-13T18:10:56.000Z</time></trkpt>
        <trkpt lat="29.4946903" lon="104.3446174"><ele>649.86</ele><time>2026-01-13T18:11:04.000Z</time></trkpt>
        <trkpt lat="29.4945964" lon="104.3445756"><ele>648.63</ele><time>2026-01-13T18:11:14.000Z</time></trkpt>
        <trkpt lat="29.4945157" lon="104.3445111"><ele>648.03</ele><time>2026-01-13T18:11:24.000Z</time></trkpt>
        <trkpt lat="29.4944432" lon="104.3444354"><ele>647.46</ele><time>2026-01-13T18:11:34.000Z</time></trkpt>
        <trkpt lat="29.4943558" lon="104.3443654"><ele>647.19</ele><time>2026-01-13T18:11:46.000Z</time></trkpt>
        <trkpt lat="29.4942792" lon="104.3442841"><ele>646.84</ele><time>2026-01-13T18:11:58.000Z</time></trkpt>
        <trkpt lat="29.494209" lon="104.3442046"><ele>646.86</ele><time>2026-01-13T18:12:08.000Z</time></trkpt>
        <trkpt lat="29.4941505" lon="104.3441139"><ele>646.72</ele><time>2026-01-13T18:12:20.000Z</time></trkpt>
        <trkpt lat="29.4940863" lon="104.3440251"><ele>646.48</ele><time>2026-01-13T18:12:32.000Z</time></trkpt>
        <trkpt lat="29.4940286" lon="104.3439363"><ele>646.61</ele><time>2026-01-13T18:12:44.000Z</time></trkpt>
        <trkpt lat="29.493968" lon="104.3438424"><ele>646.8</ele><time>2026-01-13T18:12:56.000Z</time></trkpt>
        <trkpt lat="29.493913" lon="104.3437439"><ele>646.68</ele><time>2026-01-13T18:13:06.000Z</time></trkpt>
        <trkpt lat="29.4938437" lon="104.3436686"><ele>646.37</ele><time>2026-01-13T18:13:16.000Z</time></trkpt>
        <trkpt lat="29.4937617" lon="104.3436036"><ele>646.83</ele><time>2026-01-13T18:13:28.000Z</time></trkpt>
        <trkpt lat="29.4936828" lon="104.3435436"><ele>647.41</ele><time>2026-01-13T18:13:38.000Z</time></trkpt>
        <trkpt lat="29.4936201" lon="104.3434688"><ele>647.11</ele><time>2026-01-13T18:13:48.000Z</time></trkpt>
        <trkpt lat="29.493561" lon="104.3433834"><ele>646.75</ele><time>2026-01-13T18:14:04.000Z</time></trkpt>
        <trkpt lat="29.4934999" lon="104.3432939"><ele>645.82</ele><time>2026-01-13T18:14:14.000Z</time></trkpt>
        <trkpt lat="29.4934313" lon="104.3432073"><ele>644.46</ele><time>2026-01-13T18:14:26.000Z</time></trkpt>
        <trkpt lat="29.493354" lon="104.3431488"><ele>643.47</ele><time>2026-01-13T18:14:36.000Z</time></trkpt>
        <trkpt lat="29.49327" lon="104.3431023"><ele>641.8</ele><time>2026-01-13T18:14:44.000Z</time></trkpt>
        <trkpt lat="29.4931808" lon="104.3430539"><ele>640.18</ele><time>2026-01-13T18:14:52.000Z</time></trkpt>
        <trkpt lat="29.4930919" lon="104.3430072"><ele>639.37</ele><time>2026-01-13T18:15:04.000Z</time></trkpt>
        <trkpt lat="29.4930104" lon="104.3429549"><ele>638.49</ele><time>2026-01-13T18:15:14.000Z</time></trkpt>
        <trkpt lat="29.49293" lon="104.3429052"><ele>637.32</ele><time>2026-01-13T18:15:22.000Z</time></trkpt>
        <trkpt lat="29.4928419" lon="104.3428431"><ele>636.31</ele><time>2026-01-13T18:15:32.000Z</time></trkpt>
        <trkpt lat="29.4927569" lon="104.3427908"><ele>635.05</ele><time>2026-01-13T18:15:42.000Z</time></trkpt>
        <trkpt lat="29.4926753" lon="104.3427343"><ele>633.9</ele><time>2026-01-13T18:15:52.000Z</time></trkpt>
        <trkpt lat="29.4925785" lon="104.3427087"><ele>633.07</ele><time>2026-01-13T18:16:02.000Z</time></trkpt>
        <trkpt lat="29.4924966" lon="104.3427494"><ele>631.59</ele><time>2026-01-13T18:16:12.000Z</time></trkpt>
        <trkpt lat="29.4924249" lon="104.3428312"><ele>630.04</ele><time>2026-01-13T18:16:22.000Z</time></trkpt>
        <trkpt lat="29.4923488" lon="104.3429024"><ele>628.55</ele><time>2026-01-13T18:16:32.000Z</time></trkpt>
        <trkpt lat="29.4922746" lon="104.3429765"><ele>627.28</ele><time>2026-01-13T18:16:42.000Z</time></trkpt>
        <trkpt lat="29.492188" lon="104.3430152"><ele>626.42</ele><time>2026-01-13T18:16:52.000Z</time></trkpt>
        <trkpt lat="29.4921397" lon="104.3429477"><ele>625.33</ele><time>2026-01-13T18:17:18.000Z</time></trkpt>
        <trkpt lat="29.4922142" lon="104.3429905"><ele>625.68</ele><time>2026-01-13T18:26:02.000Z</time></trkpt>
        <trkpt lat="29.4923168" lon="104.3429697"><ele>625.81</ele><time>2026-01-13T18:26:12.000Z</time></trkpt>
        <trkpt lat="29.492408" lon="104.3429124"><ele>626.79</ele><time>2026-01-13T18:26:22.000Z</time></trkpt>
        <trkpt lat="29.4924862" lon="104.3428371"><ele>627.65</ele><time>2026-01-13T18:26:30.000Z</time></trkpt>
        <trkpt lat="29.4925639" lon="104.342758"><ele>627.99</ele><time>2026-01-13T18:26:40.000Z</time></trkpt>
        <trkpt lat="29.4926418" lon="104.3426922"><ele>628.1</ele><time>2026-01-13T18:26:58.000Z</time></trkpt>
        <trkpt lat="29.4927213" lon="104.3426351"><ele>627.69</ele><time>2026-01-13T18:27:10.000Z</time></trkpt>
        <trkpt lat="29.4926958" lon="104.3425491"><ele>627.46</ele><time>2026-01-13T18:27:24.000Z</time></trkpt>
        <trkpt lat="29.4927438" lon="104.3425378"><ele>626.88</ele><time>2026-01-13T18:28:14.000Z</time></trkpt>
        <trkpt lat="29.4928274" lon="104.3425525"><ele>625.58</ele><time>2026-01-13T18:28:34.000Z</time></trkpt>
        <trkpt lat="29.4929227" lon="104.3425753"><ele>621.81</ele><time>2026-01-13T18:29:02.000Z</time></trkpt>
        <trkpt lat="29.4930254" lon="104.3426029"><ele>619.59</ele><time>2026-01-13T18:29:08.000Z</time></trkpt>
        <trkpt lat="29.4931356" lon="104.3426332"><ele>617.58</ele><time>2026-01-13T18:29:18.000Z</time></trkpt>
        <trkpt lat="29.4932366" lon="104.3426848"><ele>615.33</ele><time>2026-01-13T18:29:26.000Z</time></trkpt>
        <trkpt lat="29.4933378" lon="104.3427272"><ele>613.11</ele><time>2026-01-13T18:29:36.000Z</time></trkpt>
        <trkpt lat="29.4934264" lon="104.3427816"><ele>610.95</ele><time>2026-01-13T18:29:48.000Z</time></trkpt>
        <trkpt lat="29.493512" lon="104.3428355"><ele>608.07</ele><time>2026-01-13T18:30:06.000Z</time></trkpt>
        <trkpt lat="29.4936001" lon="104.3428647"><ele>605.88</ele><time>2026-01-13T18:30:20.000Z</time></trkpt>
        <trkpt lat="29.4936889" lon="104.3429055"><ele>604.29</ele><time>2026-01-13T18:30:32.000Z</time></trkpt>
        <trkpt lat="29.493766" lon="104.3429627"><ele>602.88</ele><time>2026-01-13T18:30:42.000Z</time></trkpt>
        <trkpt lat="29.4938475" lon="104.3430168"><ele>601.68</ele><time>2026-01-13T18:31:04.000Z</time></trkpt>
        <trkpt lat="29.4939492" lon="104.3430472"><ele>600.32</ele><time>2026-01-13T18:31:14.000Z</time></trkpt>
        <trkpt lat="29.4940485" lon="104.343089"><ele>599.44</ele><time>2026-01-13T18:31:26.000Z</time></trkpt>
        <trkpt lat="29.4941456" lon="104.3431279"><ele>599.19</ele><time>2026-01-13T18:31:34.000Z</time></trkpt>
        <trkpt lat="29.494232" lon="104.343188"><ele>598.58</ele><time>2026-01-13T18:31:50.000Z</time></trkpt>
        <trkpt lat="29.4943246" lon="104.3432398"><ele>597.75</ele><time>2026-01-13T18:32:08.000Z</time></trkpt>
        <trkpt lat="29.4944198" lon="104.343269"><ele>597.05</ele><time>2026-01-13T18:32:22.000Z</time></trkpt>
        <trkpt lat="29.4945127" lon="104.3432968"><ele>597.1</ele><time>2026-01-13T18:32:44.000Z</time></trkpt>
        <trkpt lat="29.4946009" lon="104.3433451"><ele>597.59</ele><time>2026-01-13T18:32:54.000Z</time></trkpt>
        <trkpt lat="29.4946817" lon="104.3434131"><ele>597.98</ele><time>2026-01-13T18:33:10.000Z</time></trkpt>
        <trkpt lat="29.4947608" lon="104.3434851"><ele>598.38</ele><time>2026-01-13T18:33:18.000Z</time></trkpt>
        <trkpt lat="29.4948341" lon="104.3435554"><ele>598.31</ele><time>2026-01-13T18:33:26.000Z</time></trkpt>
        <trkpt lat="29.4948824" lon="104.3436427"><ele>598.15</ele><time>2026-01-13T18:33:38.000Z</time></trkpt>
        <trkpt lat="29.4949568" lon="104.3436848"><ele>598.34</ele><time>2026-01-13T18:33:46.000Z</time></trkpt>
        <trkpt lat="29.4950486" lon="104.3436925"><ele>598.76</ele><time>2026-01-13T18:33:58.000Z</time></trkpt>
        <trkpt lat="29.4951402" lon="104.3437316"><ele>599.33</ele><time>2026-01-13T18:34:08.000Z</time></trkpt>
        <trkpt lat="29.4952383" lon="104.3437484"><ele>599.32</ele><time>2026-01-13T18:34:20.000Z</time></trkpt>
        <trkpt lat="29.4953295" lon="104.3437309"><ele>598.81</ele><time>2026-01-13T18:34:38.000Z</time></trkpt>
        <trkpt lat="29.4954208" lon="104.34372"><ele>598.68</ele><time>2026-01-13T18:34:48.000Z</time></trkpt>
        <trkpt lat="29.4955071" lon="104.3436823"><ele>598.97</ele><time>2026-01-13T18:34:58.000Z</time></trkpt>
        <trkpt lat="29.4956002" lon="104.3436571"><ele>599.1</ele><time>2026-01-13T18:35:08.000Z</time></trkpt>
        <trkpt lat="29.4956918" lon="104.3436901"><ele>598.94</ele><time>2026-01-13T18:35:20.000Z</time></trkpt>
        <trkpt lat="29.4957765" lon="104.3437538"><ele>598.71</ele><time>2026-01-13T18:35:32.000Z</time></trkpt>
        <trkpt lat="29.4958661" lon="104.3438042"><ele>598.47</ele><time>2026-01-13T18:35:58.000Z</time></trkpt>
        <trkpt lat="29.4959671" lon="104.3438363"><ele>598.75</ele><time>2026-01-13T18:36:08.000Z</time></trkpt>
        <trkpt lat="29.4960659" lon="104.3438473"><ele>599.02</ele><time>2026-01-13T18:36:18.000Z</time></trkpt>
        <trkpt lat="29.4961717" lon="104.3438379"><ele>598.63</ele><time>2026-01-13T18:36:28.000Z</time></trkpt>
        <trkpt lat="29.4962821" lon="104.3438238"><ele>598.28</ele><time>2026-01-13T18:36:38.000Z</time></trkpt>
        <trkpt lat="29.4963784" lon="104.3438142"><ele>597.93</ele><time>2026-01-13T18:36:46.000Z</time></trkpt>
        <trkpt lat="29.4964672" lon="104.3437806"><ele>597.48</ele><time>2026-01-13T18:36:56.000Z</time></trkpt>
        <trkpt lat="29.4965518" lon="104.3437396"><ele>597.6</ele><time>2026-01-13T18:37:04.000Z</time></trkpt>
        <trkpt lat="29.4966452" lon="104.3437093"><ele>597.51</ele><time>2026-01-13T18:37:14.000Z</time></trkpt>
        <trkpt lat="29.4967409" lon="104.343686"><ele>597.23</ele><time>2026-01-13T18:37:24.000Z</time></trkpt>
        <trkpt lat="29.4968413" lon="104.3436454"><ele>596.95</ele><time>2026-01-13T18:37:34.000Z</time></trkpt>
        <trkpt lat="29.4969424" lon="104.3436241"><ele>596.96</ele><time>2026-01-13T18:37:46.000Z</time></trkpt>
        <trkpt lat="29.497044" lon="104.343622"><ele>597.1</ele><time>2026-01-13T18:37:58.000Z</time></trkpt>
        <trkpt lat="29.4971339" lon="104.3436602"><ele>597.05</ele><time>2026-01-13T18:38:08.000Z</time></trkpt>
        <trkpt lat="29.4972264" lon="104.3437039"><ele>596.97</ele><time>2026-01-13T18:38:20.000Z</time></trkpt>
        <trkpt lat="29.4972929" lon="104.3437842"><ele>597.08</ele><time>2026-01-13T18:38:32.000Z</time></trkpt>
        <trkpt lat="29.4973601" lon="104.3438641"><ele>596.77</ele><time>2026-01-13T18:38:56.000Z</time></trkpt>
        <trkpt lat="29.4974213" lon="104.3439541"><ele>596.17</ele><time>2026-01-13T18:39:10.000Z</time></trkpt>
        <trkpt lat="29.4974677" lon="104.3440563"><ele>595.85</ele><time>2026-01-13T18:39:28.000Z</time></trkpt>
        <trkpt lat="29.4974994" lon="104.344168"><ele>594.56</ele><time>2026-01-13T18:39:44.000Z</time></trkpt>
        <trkpt lat="29.497543" lon="104.344264"><ele>593.52</ele><time>2026-01-13T18:40:04.000Z</time></trkpt>
        <trkpt lat="29.4976422" lon="104.3442721"><ele>591.62</ele><time>2026-01-13T18:41:26.000Z</time></trkpt>
        <trkpt lat="29.4977466" lon="104.3442421"><ele>588.94</ele><time>2026-01-13T18:41:36.000Z</time></trkpt>
        <trkpt lat="29.4978231" lon="104.3441602"><ele>586.91</ele><time>2026-01-13T18:42:10.000Z</time></trkpt>
        <trkpt lat="29.4978875" lon="104.3440758"><ele>581.44</ele><time>2026-01-13T18:42:28.000Z</time></trkpt>
        <trkpt lat="29.497924" lon="104.3439734"><ele>576.6</ele><time>2026-01-13T18:42:44.000Z</time></trkpt>
        <trkpt lat="29.4979792" lon="104.3438774"><ele>573.11</ele><time>2026-01-13T18:42:58.000Z</time></trkpt>
        <trkpt lat="29.4980603" lon="104.3438191"><ele>570.17</ele><time>2026-01-13T18:43:16.000Z</time></trkpt>
        <trkpt lat="29.4981514" lon="104.3438095"><ele>566.28</ele><time>2026-01-13T18:43:28.000Z</time></trkpt>
        <trkpt lat="29.4982404" lon="104.343845"><ele>563.42</ele><time>2026-01-13T18:44:08.000Z</time></trkpt>
        <trkpt lat="29.4983323" lon="104.3438174"><ele>560.6</ele><time>2026-01-13T18:44:26.000Z</time></trkpt>
        <trkpt lat="29.4983399" lon="104.343731"><ele>558.08</ele><time>2026-01-13T18:44:44.000Z</time></trkpt>
        <trkpt lat="29.4983233" lon="104.3436115"><ele>555.76</ele><time>2026-01-13T18:45:02.000Z</time></trkpt>
        <trkpt lat="29.4983273" lon="104.3434907"><ele>553.73</ele><time>2026-01-13T18:45:12.000Z</time></trkpt>
        <trkpt lat="29.4984001" lon="104.3434321"><ele>552.21</ele><time>2026-01-13T18:45:40.000Z</time></trkpt>
        <trkpt lat="29.4985025" lon="104.34341"><ele>551.11</ele><time>2026-01-13T18:46:14.000Z</time></trkpt>
        <trkpt lat="29.4986049" lon="104.3434025"><ele>552.35</ele><time>2026-01-13T18:46:24.000Z</time></trkpt>
        <trkpt lat="29.4986801" lon="104.3433398"><ele>552.17</ele><time>2026-01-13T18:46:38.000Z</time></trkpt>
        <trkpt lat="29.4987438" lon="104.3432573"><ele>551.56</ele><time>2026-01-13T18:46:48.000Z</time></trkpt>
        <trkpt lat="29.4987249" lon="104.3431569"><ele>551.02</ele><time>2026-01-13T18:46:58.000Z</time></trkpt>
        <trkpt lat="29.4986346" lon="104.3431487"><ele>550.38</ele><time>2026-01-13T18:47:08.000Z</time></trkpt>
        <trkpt lat="29.4985205" lon="104.3431791"><ele>550.15</ele><time>2026-01-13T18:47:26.000Z</time></trkpt>
        <trkpt lat="29.4984411" lon="104.3431268"><ele>549.98</ele><time>2026-01-13T18:47:38.000Z</time></trkpt>
        <trkpt lat="29.4984577" lon="104.3430287"><ele>550.04</ele><time>2026-01-13T18:47:52.000Z</time></trkpt>
        <trkpt lat="29.4985053" lon="104.3429238"><ele>550.72</ele><time>2026-01-13T18:48:12.000Z</time></trkpt>
        <trkpt lat="29.4985986" lon="104.3429035"><ele>550.66</ele><time>2026-01-13T18:48:36.000Z</time></trkpt>
        <trkpt lat="29.4987034" lon="104.342916"><ele>550.1</ele><time>2026-01-13T18:48:48.000Z</time></trkpt>
        <trkpt lat="29.4988101" lon="104.3429293"><ele>549.76</ele><time>2026-01-13T18:49:00.000Z</time></trkpt>
        <trkpt lat="29.49891" lon="104.3429429"><ele>550</ele><time>2026-01-13T18:49:16.000Z</time></trkpt>
        <trkpt lat="29.4990082" lon="104.3429207"><ele>550.01</ele><time>2026-01-13T18:49:30.000Z</time></trkpt>
        <trkpt lat="29.4990993" lon="104.3428961"><ele>549.69</ele><time>2026-01-13T18:49:48.000Z</time></trkpt>
        <trkpt lat="29.4991735" lon="104.3428379"><ele>549.17</ele><time>2026-01-13T18:50:04.000Z</time></trkpt>
        <trkpt lat="29.4992383" lon="104.3427604"><ele>549.33</ele><time>2026-01-13T18:50:38.000Z</time></trkpt>
        <trkpt lat="29.4993197" lon="104.3427359"><ele>548.88</ele><time>2026-01-13T18:51:04.000Z</time></trkpt>
        <trkpt lat="29.4994041" lon="104.3427067"><ele>548.4</ele><time>2026-01-13T18:51:24.000Z</time></trkpt>
        <trkpt lat="29.4994835" lon="104.3426487"><ele>548.44</ele><time>2026-01-13T18:51:40.000Z</time></trkpt>
        <trkpt lat="29.4995239" lon="104.3425519"><ele>548.44</ele><time>2026-01-13T18:51:52.000Z</time></trkpt>
        <trkpt lat="29.499594" lon="104.3424813"><ele>547.58</ele><time>2026-01-13T18:52:02.000Z</time></trkpt>
        <trkpt lat="29.4996371" lon="104.3423812"><ele>546.69</ele><time>2026-01-13T18:52:16.000Z</time></trkpt>
        <trkpt lat="29.49957" lon="104.3423061"><ele>545.5</ele><time>2026-01-13T18:52:26.000Z</time></trkpt>
        <trkpt lat="29.4994848" lon="104.3422256"><ele>544.01</ele><time>2026-01-13T18:52:38.000Z</time></trkpt>
        <trkpt lat="29.4994566" lon="104.3421212"><ele>542.85</ele><time>2026-01-13T18:52:56.000Z</time></trkpt>
        <trkpt lat="29.4994245" lon="104.3420197"><ele>542.15</ele><time>2026-01-13T18:53:12.000Z</time></trkpt>
        <trkpt lat="29.4994812" lon="104.3419669"><ele>541.82</ele><time>2026-01-13T18:53:28.000Z</time></trkpt>
        <trkpt lat="29.4995077" lon="104.3418725"><ele>542.05</ele><time>2026-01-13T18:54:02.000Z</time></trkpt>
        <trkpt lat="29.4994965" lon="104.341759"><ele>543.28</ele><time>2026-01-13T18:54:18.000Z</time></trkpt>
        <trkpt lat="29.4994441" lon="104.3416592"><ele>544.42</ele><time>2026-01-13T18:54:30.000Z</time></trkpt>
        <trkpt lat="29.499466" lon="104.3415637"><ele>545.11</ele><time>2026-01-13T18:54:44.000Z</time></trkpt>
        <trkpt lat="29.4995071" lon="104.3414639"><ele>546.37</ele><time>2026-01-13T18:55:04.000Z</time></trkpt>
        <trkpt lat="29.4994706" lon="104.3413804"><ele>548.31</ele><time>2026-01-13T18:55:26.000Z</time></trkpt>
        <trkpt lat="29.4994281" lon="104.3412894"><ele>549.66</ele><time>2026-01-13T18:55:36.000Z</time></trkpt>
        <trkpt lat="29.499442" lon="104.3411857"><ele>550.67</ele><time>2026-01-13T18:55:52.000Z</time></trkpt>
        <trkpt lat="29.4995014" lon="104.3411075"><ele>551.21</ele><time>2026-01-13T18:56:06.000Z</time></trkpt>
        <trkpt lat="29.4995141" lon="104.3410096"><ele>552.9</ele><time>2026-01-13T18:56:18.000Z</time></trkpt>
        <trkpt lat="29.4995292" lon="104.3409045"><ele>554.04</ele><time>2026-01-13T18:56:40.000Z</time></trkpt>
        <trkpt lat="29.499478" lon="104.340824"><ele>555.77</ele><time>2026-01-13T18:56:52.000Z</time></trkpt>
        <trkpt lat="29.4993782" lon="104.3408226"><ele>557.45</ele><time>2026-01-13T18:57:02.000Z</time></trkpt>
        <trkpt lat="29.4992871" lon="104.3408784"><ele>559.17</ele><time>2026-01-13T18:57:12.000Z</time></trkpt>
        <trkpt lat="29.4991854" lon="104.340936"><ele>564.48</ele><time>2026-01-13T18:59:16.000Z</time></trkpt>
        <trkpt lat="29.4990884" lon="104.3409748"><ele>569.02</ele><time>2026-01-13T18:59:44.000Z</time></trkpt>
        <trkpt lat="29.4990001" lon="104.3410191"><ele>573.43</ele><time>2026-01-13T18:59:56.000Z</time></trkpt>
        <trkpt lat="29.4989206" lon="104.340979"><ele>573.25</ele><time>2026-01-13T19:00:46.000Z</time></trkpt>
        <trkpt lat="29.4988977" lon="104.3408835"><ele>572.36</ele><time>2026-01-13T19:01:10.000Z</time></trkpt>
        <trkpt lat="29.4989231" lon="104.3407399"><ele>571.65</ele><time>2026-01-13T19:02:14.000Z</time></trkpt>
        <trkpt lat="29.4988628" lon="104.3406501"><ele>571.81</ele><time>2026-01-13T19:02:48.000Z</time></trkpt>
        <trkpt lat="29.4987766" lon="104.3406283"><ele>573.1</ele><time>2026-01-13T19:03:14.000Z</time></trkpt>
        <trkpt lat="29.4986865" lon="104.340595"><ele>575.8</ele><time>2026-01-13T19:04:42.000Z</time></trkpt>
        <trkpt lat="29.4985994" lon="104.3406376"><ele>581.71</ele><time>2026-01-13T19:05:02.000Z</time></trkpt>
        <trkpt lat="29.4985279" lon="104.3405866"><ele>589.35</ele><time>2026-01-13T19:05:56.000Z</time></trkpt>
        <trkpt lat="29.4984345" lon="104.3405656"><ele>594.58</ele><time>2026-01-13T19:07:16.000Z</time></trkpt>
        <trkpt lat="29.4983604" lon="104.3404964"><ele>599.72</ele><time>2026-01-13T19:08:52.000Z</time></trkpt>
        <trkpt lat="29.4982932" lon="104.3404171"><ele>603.9</ele><time>2026-01-13T19:09:08.000Z</time></trkpt>
        <trkpt lat="29.4982477" lon="104.340326"><ele>607.31</ele><time>2026-01-13T19:09:26.000Z</time></trkpt>
        <trkpt lat="29.4981966" lon="104.3402291"><ele>609.23</ele><time>2026-01-13T19:09:42.000Z</time></trkpt>
        <trkpt lat="29.4981331" lon="104.3401273"><ele>611.45</ele><time>2026-01-13T19:09:54.000Z</time></trkpt>
        <trkpt lat="29.4980965" lon="104.3400245"><ele>613.11</ele><time>2026-01-13T19:10:10.000Z</time></trkpt>
        <trkpt lat="29.4980641" lon="104.3399239"><ele>614.77</ele><time>2026-01-13T19:10:28.000Z</time></trkpt>
        <trkpt lat="29.4980556" lon="104.3398172"><ele>616.22</ele><time>2026-01-13T19:10:46.000Z</time></trkpt>
        <trkpt lat="29.4980121" lon="104.3397194"><ele>617.23</ele><time>2026-01-13T19:10:56.000Z</time></trkpt>
        <trkpt lat="29.4980088" lon="104.3396158"><ele>618.23</ele><time>2026-01-13T19:11:08.000Z</time></trkpt>
        <trkpt lat="29.4980411" lon="104.3395181"><ele>618.93</ele><time>2026-01-13T19:11:22.000Z</time></trkpt>
        <trkpt lat="29.4980475" lon="104.3394138"><ele>619.63</ele><time>2026-01-13T19:11:32.000Z</time></trkpt>
        <trkpt lat="29.498032" lon="104.3393116"><ele>619.41</ele><time>2026-01-13T19:11:46.000Z</time></trkpt>
        <trkpt lat="29.4979947" lon="104.3392065"><ele>619.42</ele><time>2026-01-13T19:12:02.000Z</time></trkpt>
        <trkpt lat="29.4979495" lon="104.3390964"><ele>619.99</ele><time>2026-01-13T19:12:14.000Z</time></trkpt>
        <trkpt lat="29.4979353" lon="104.33899"><ele>620.17</ele><time>2026-01-13T19:12:26.000Z</time></trkpt>
        <trkpt lat="29.4979939" lon="104.3389139"><ele>620.52</ele><time>2026-01-13T19:13:20.000Z</time></trkpt>
        <trkpt lat="29.4980856" lon="104.3388919"><ele>622.76</ele><time>2026-01-13T19:13:30.000Z</time></trkpt>
        <trkpt lat="29.4981474" lon="104.3388212"><ele>624.42</ele><time>2026-01-13T19:14:08.000Z</time></trkpt>
        <trkpt lat="29.4982367" lon="104.3388352"><ele>626.57</ele><time>2026-01-13T19:14:30.000Z</time></trkpt>
        <trkpt lat="29.4983271" lon="104.3389154"><ele>627.52</ele><time>2026-01-13T19:21:12.000Z</time></trkpt>
        <trkpt lat="29.4984194" lon="104.3389098"><ele>628.82</ele><time>2026-01-13T19:21:32.000Z</time></trkpt>
        <trkpt lat="29.4985065" lon="104.3388812"><ele>630.19</ele><time>2026-01-13T19:21:58.000Z</time></trkpt>
        <trkpt lat="29.4985997" lon="104.3389051"><ele>632.17</ele><time>2026-01-13T19:22:14.000Z</time></trkpt>
        <trkpt lat="29.4986909" lon="104.3389197"><ele>634.29</ele><time>2026-01-13T19:22:28.000Z</time></trkpt>
        <trkpt lat="29.4987828" lon="104.3389537"><ele>636.79</ele><time>2026-01-13T19:22:42.000Z</time></trkpt>
        <trkpt lat="29.4988794" lon="104.3389805"><ele>639.15</ele><time>2026-01-13T19:22:56.000Z</time></trkpt>
        <trkpt lat="29.4989678" lon="104.3390228"><ele>641.5</ele><time>2026-01-13T19:23:10.000Z</time></trkpt>
        <trkpt lat="29.4990482" lon="104.3390788"><ele>643.48</ele><time>2026-01-13T19:23:24.000Z</time></trkpt>
        <trkpt lat="29.499144" lon="104.339104"><ele>644.8</ele><time>2026-01-13T19:23:36.000Z</time></trkpt>
        <trkpt lat="29.4992376" lon="104.3391045"><ele>645.99</ele><time>2026-01-13T19:23:48.000Z</time></trkpt>
        <trkpt lat="29.4993366" lon="104.3391248"><ele>647.14</ele><time>2026-01-13T19:24:02.000Z</time></trkpt>
        <trkpt lat="29.4994357" lon="104.339158"><ele>648.23</ele><time>2026-01-13T19:24:14.000Z</time></trkpt>
        <trkpt lat="29.4995326" lon="104.3391671"><ele>649.37</ele><time>2026-01-13T19:24:30.000Z</time></trkpt>
        <trkpt lat="29.4996241" lon="104.3391279"><ele>651.63</ele><time>2026-01-13T19:24:44.000Z</time></trkpt>
        <trkpt lat="29.4997254" lon="104.3391001"><ele>653.85</ele><time>2026-01-13T19:24:58.000Z</time></trkpt>
        <trkpt lat="29.4998171" lon="104.3390585"><ele>655.46</ele><time>2026-01-13T19:25:10.000Z</time></trkpt>
        <trkpt lat="29.4999014" lon="104.339011"><ele>656.24</ele><time>2026-01-13T19:25:22.000Z</time></trkpt>
        <trkpt lat="29.4999882" lon="104.3389816"><ele>656.82</ele><time>2026-01-13T19:25:36.000Z</time></trkpt>
        <trkpt lat="29.5000812" lon="104.3389571"><ele>657.42</ele><time>2026-01-13T19:25:50.000Z</time></trkpt>
        <trkpt lat="29.5001726" lon="104.3389192"><ele>658.25</ele><time>2026-01-13T19:26:00.000Z</time></trkpt>
        <trkpt lat="29.5002703" lon="104.338892"><ele>659.24</ele><time>2026-01-13T19:26:12.000Z</time></trkpt>
        <trkpt lat="29.5003627" lon="104.3388601"><ele>660.19</ele><time>2026-01-13T19:26:30.000Z</time></trkpt>
        <trkpt lat="29.5004476" lon="104.3388124"><ele>661.1</ele><time>2026-01-13T19:26:42.000Z</time></trkpt>
        <trkpt lat="29.5005428" lon="104.3387861"><ele>662.28</ele><time>2026-01-13T19:26:58.000Z</time></trkpt>
        <trkpt lat="29.5006345" lon="104.3387472"><ele>664</ele><time>2026-01-13T19:27:12.000Z</time></trkpt>
        <trkpt lat="29.5007205" lon="104.3386975"><ele>665.58</ele><time>2026-01-13T19:27:26.000Z</time></trkpt>
        <trkpt lat="29.5008098" lon="104.3386379"><ele>666.46</ele><time>2026-01-13T19:27:40.000Z</time></trkpt>
        <trkpt lat="29.5008803" lon="104.3385664"><ele>667.3</ele><time>2026-01-13T19:27:52.000Z</time></trkpt>
        <trkpt lat="29.5009454" lon="104.3384736"><ele>668.67</ele><time>2026-01-13T19:28:06.000Z</time></trkpt>
        <trkpt lat="29.5010178" lon="104.3384002"><ele>670.28</ele><time>2026-01-13T19:28:20.000Z</time></trkpt>
        <trkpt lat="29.5010617" lon="104.3382566"><ele>671.51</ele><time>2026-01-13T19:29:30.000Z</time></trkpt>
        <trkpt lat="29.5011016" lon="104.338145"><ele>672.41</ele><time>2026-01-13T19:29:34.000Z</time></trkpt>
        <trkpt lat="29.5010796" lon="104.3380235"><ele>672.93</ele><time>2026-01-13T19:29:42.000Z</time></trkpt>
        <trkpt lat="29.5010544" lon="104.3379055"><ele>673.39</ele><time>2026-01-13T19:29:50.000Z</time></trkpt>
        <trkpt lat="29.5010263" lon="104.33779"><ele>673.43</ele><time>2026-01-13T19:29:58.000Z</time></trkpt>
        <trkpt lat="29.5009877" lon="104.3376715"><ele>673.43</ele><time>2026-01-13T19:30:06.000Z</time></trkpt>
        <trkpt lat="29.5009772" lon="104.3375466"><ele>673.01</ele><time>2026-01-13T19:30:14.000Z</time></trkpt>
        <trkpt lat="29.500973" lon="104.3374229"><ele>672.58</ele><time>2026-01-13T19:30:22.000Z</time></trkpt>
        <trkpt lat="29.501002" lon="104.3373159"><ele>671.89</ele><time>2026-01-13T19:30:30.000Z</time></trkpt>
        <trkpt lat="29.501002" lon="104.3372084"><ele>671.55</ele><time>2026-01-13T19:30:38.000Z</time></trkpt>
        <trkpt lat="29.5009826" lon="104.3370997"><ele>671.73</ele><time>2026-01-13T19:30:50.000Z</time></trkpt>
        <trkpt lat="29.5009533" lon="104.3369963"><ele>671.93</ele><time>2026-01-13T19:31:00.000Z</time></trkpt>
        <trkpt lat="29.500948" lon="104.3368912"><ele>672.26</ele><time>2026-01-13T19:31:14.000Z</time></trkpt>
        <trkpt lat="29.501013" lon="104.3368165"><ele>672.85</ele><time>2026-01-13T19:31:28.000Z</time></trkpt>
        <trkpt lat="29.5010943" lon="104.3367568"><ele>673.38</ele><time>2026-01-13T19:31:38.000Z</time></trkpt>
        <trkpt lat="29.5011693" lon="104.3366738"><ele>673.03</ele><time>2026-01-13T19:31:50.000Z</time></trkpt>
        <trkpt lat="29.501218" lon="104.3365788"><ele>672.82</ele><time>2026-01-13T19:32:02.000Z</time></trkpt>
        <trkpt lat="29.5012808" lon="104.336491"><ele>672.95</ele><time>2026-01-13T19:32:14.000Z</time></trkpt>
        <trkpt lat="29.5013667" lon="104.3364497"><ele>672.54</ele><time>2026-01-13T19:32:24.000Z</time></trkpt>
        <trkpt lat="29.5014625" lon="104.3364324"><ele>672.55</ele><time>2026-01-13T19:32:36.000Z</time></trkpt>
        <trkpt lat="29.5015581" lon="104.3364249"><ele>672.59</ele><time>2026-01-13T19:32:46.000Z</time></trkpt>
        <trkpt lat="29.5016566" lon="104.3364303"><ele>672.59</ele><time>2026-01-13T19:32:58.000Z</time></trkpt>
        <trkpt lat="29.5017524" lon="104.3364157"><ele>672.42</ele><time>2026-01-13T19:33:12.000Z</time></trkpt>
        <trkpt lat="29.5018447" lon="104.3364034"><ele>671.95</ele><time>2026-01-13T19:33:26.000Z</time></trkpt>
        <trkpt lat="29.5019372" lon="104.3363687"><ele>671.54</ele><time>2026-01-13T19:33:42.000Z</time></trkpt>
        <trkpt lat="29.5020317" lon="104.3363575"><ele>671.54</ele><time>2026-01-13T19:33:52.000Z</time></trkpt>
        <trkpt lat="29.5021244" lon="104.3363366"><ele>671.67</ele><time>2026-01-13T19:34:06.000Z</time></trkpt>
        <trkpt lat="29.5021635" lon="104.3362548"><ele>671.37</ele><time>2026-01-13T19:34:18.000Z</time></trkpt>
        <trkpt lat="29.5020999" lon="104.3362124"><ele>670.88</ele><time>2026-01-13T19:34:28.000Z</time></trkpt>
        <trkpt lat="29.5020129" lon="104.3361463"><ele>671.27</ele><time>2026-01-13T19:34:42.000Z</time></trkpt>
        <trkpt lat="29.5019533" lon="104.336054"><ele>672.14</ele><time>2026-01-13T19:34:58.000Z</time></trkpt>
        <trkpt lat="29.5019124" lon="104.3359537"><ele>673.14</ele><time>2026-01-13T19:35:12.000Z</time></trkpt>
        <trkpt lat="29.5018381" lon="104.3358876"><ele>675.23</ele><time>2026-01-13T19:35:28.000Z</time></trkpt>
        <trkpt lat="29.5017554" lon="104.3358267"><ele>676.46</ele><time>2026-01-13T19:35:44.000Z</time></trkpt>
        <trkpt lat="29.5016906" lon="104.3357499"><ele>677.76</ele><time>2026-01-13T19:36:00.000Z</time></trkpt>
        <trkpt lat="29.501669" lon="104.3356472"><ele>679.07</ele><time>2026-01-13T19:36:16.000Z</time></trkpt>
        <trkpt lat="29.5016788" lon="104.3355338"><ele>680.22</ele><time>2026-01-13T19:36:30.000Z</time></trkpt>
        <trkpt lat="29.501706" lon="104.3354273"><ele>681.48</ele><time>2026-01-13T19:37:02.000Z</time></trkpt>
        <trkpt lat="29.5017769" lon="104.3353408"><ele>686.1</ele><time>2026-01-13T19:37:16.000Z</time></trkpt>
        <trkpt lat="29.5018683" lon="104.3352947"><ele>686.38</ele><time>2026-01-13T19:37:30.000Z</time></trkpt>
        <trkpt lat="29.5019644" lon="104.3352582"><ele>686.1</ele><time>2026-01-13T19:37:46.000Z</time></trkpt>
        <trkpt lat="29.5020601" lon="104.3352152"><ele>686.37</ele><time>2026-01-13T19:38:02.000Z</time></trkpt>
        <trkpt lat="29.5020924" lon="104.3351263"><ele>686.47</ele><time>2026-01-13T19:38:22.000Z</time></trkpt>
        <trkpt lat="29.5021375" lon="104.3350278"><ele>685.75</ele><time>2026-01-13T19:38:34.000Z</time></trkpt>
        <trkpt lat="29.5022175" lon="104.3349647"><ele>685.9</ele><time>2026-01-13T19:38:54.000Z</time></trkpt>
        <trkpt lat="29.5022552" lon="104.3348697"><ele>685.52</ele><time>2026-01-13T19:39:18.000Z</time></trkpt>
        <trkpt lat="29.5022831" lon="104.3347595"><ele>685.89</ele><time>2026-01-13T19:39:40.000Z</time></trkpt>
        <trkpt lat="29.5022328" lon="104.3346724"><ele>686.71</ele><time>2026-01-13T19:39:52.000Z</time></trkpt>
        <trkpt lat="29.5022639" lon="104.334605"><ele>687.97</ele><time>2026-01-13T19:40:04.000Z</time></trkpt>
        <trkpt lat="29.502344" lon="104.3345208"><ele>689.22</ele><time>2026-01-13T19:40:18.000Z</time></trkpt>
        <trkpt lat="29.5024034" lon="104.3344182"><ele>690.05</ele><time>2026-01-13T19:40:30.000Z</time></trkpt>
        <trkpt lat="29.5024622" lon="104.3343274"><ele>691.24</ele><time>2026-01-13T19:40:42.000Z</time></trkpt>
        <trkpt lat="29.5025536" lon="104.3342969"><ele>692.91</ele><time>2026-01-13T19:40:54.000Z</time></trkpt>
        <trkpt lat="29.5026614" lon="104.3342907"><ele>694.65</ele><time>2026-01-13T19:41:18.000Z</time></trkpt>
        <trkpt lat="29.5027639" lon="104.3343036"><ele>696.27</ele><time>2026-01-13T19:41:36.000Z</time></trkpt>
        <trkpt lat="29.5028654" lon="104.3343208"><ele>698</ele><time>2026-01-13T19:41:54.000Z</time></trkpt>
        <trkpt lat="29.5029648" lon="104.3343379"><ele>699.66</ele><time>2026-01-13T19:42:06.000Z</time></trkpt>
        <trkpt lat="29.503059" lon="104.3343458"><ele>701.51</ele><time>2026-01-13T19:42:20.000Z</time></trkpt>
        <trkpt lat="29.5031548" lon="104.3343474"><ele>703.54</ele><time>2026-01-13T19:42:34.000Z</time></trkpt>
        <trkpt lat="29.5032482" lon="104.3343402"><ele>704.86</ele><time>2026-01-13T19:42:48.000Z</time></trkpt>
        <trkpt lat="29.5033462" lon="104.3343208"><ele>706.31</ele><time>2026-01-13T19:43:02.000Z</time></trkpt>
        <trkpt lat="29.5034405" lon="104.3342946"><ele>708.46</ele><time>2026-01-13T19:43:22.000Z</time></trkpt>
        <trkpt lat="29.5035287" lon="104.3342541"><ele>710.05</ele><time>2026-01-13T19:43:34.000Z</time></trkpt>
        <trkpt lat="29.5036248" lon="104.3342177"><ele>711.79</ele><time>2026-01-13T19:43:50.000Z</time></trkpt>
        <trkpt lat="29.5037128" lon="104.334178"><ele>713.79</ele><time>2026-01-13T19:44:06.000Z</time></trkpt>
        <trkpt lat="29.5038115" lon="104.3341731"><ele>715.63</ele><time>2026-01-13T19:44:28.000Z</time></trkpt>
        <trkpt lat="29.5039058" lon="104.3341907"><ele>717.47</ele><time>2026-01-13T19:44:40.000Z</time></trkpt>
        <trkpt lat="29.503995" lon="104.3342338"><ele>718.79</ele><time>2026-01-13T19:44:52.000Z</time></trkpt>
        <trkpt lat="29.5040846" lon="104.3342822"><ele>719.79</ele><time>2026-01-13T19:45:08.000Z</time></trkpt>
        <trkpt lat="29.504162" lon="104.3343546"><ele>720.86</ele><time>2026-01-13T19:45:20.000Z</time></trkpt>
        <trkpt lat="29.5042137" lon="104.3344447"><ele>721.52</ele><time>2026-01-13T19:45:36.000Z</time></trkpt>
        <trkpt lat="29.5042303" lon="104.3345568"><ele>722.92</ele><time>2026-01-13T19:45:48.000Z</time></trkpt>
        <trkpt lat="29.5042542" lon="104.3346789"><ele>724.68</ele><time>2026-01-13T19:46:00.000Z</time></trkpt>
        <trkpt lat="29.5043242" lon="104.3347416"><ele>727.23</ele><time>2026-01-13T19:46:10.000Z</time></trkpt>
        <trkpt lat="29.5044114" lon="104.3347781"><ele>730.14</ele><time>2026-01-13T19:46:20.000Z</time></trkpt>
        <trkpt lat="29.5044929" lon="104.3348386"><ele>731.52</ele><time>2026-01-13T19:46:44.000Z</time></trkpt>
        <trkpt lat="29.5045517" lon="104.3349369"><ele>732.22</ele><time>2026-01-13T19:47:02.000Z</time></trkpt>
        <trkpt lat="29.5046182" lon="104.3350236"><ele>733.24</ele><time>2026-01-13T19:47:14.000Z</time></trkpt>
        <trkpt lat="29.5047088" lon="104.3350545"><ele>733.84</ele><time>2026-01-13T19:47:26.000Z</time></trkpt>
        <trkpt lat="29.5047849" lon="104.3349892"><ele>733.86</ele><time>2026-01-13T19:47:38.000Z</time></trkpt>
        <trkpt lat="29.5048478" lon="104.3348789"><ele>733.68</ele><time>2026-01-13T19:47:48.000Z</time></trkpt>
        <trkpt lat="29.504887" lon="104.3347642"><ele>734.04</ele><time>2026-01-13T19:48:00.000Z</time></trkpt>
        <trkpt lat="29.5049517" lon="104.3346772"><ele>734.35</ele><time>2026-01-13T19:48:14.000Z</time></trkpt>
        <trkpt lat="29.5050426" lon="104.3346306"><ele>735.49</ele><time>2026-01-13T19:48:30.000Z</time></trkpt>
        <trkpt lat="29.5051376" lon="104.3346611"><ele>735.73</ele><time>2026-01-13T19:48:44.000Z</time></trkpt>
        <trkpt lat="29.5052133" lon="104.3347523"><ele>736.35</ele><time>2026-01-13T19:48:56.000Z</time></trkpt>
        <trkpt lat="29.5052838" lon="104.3348575"><ele>736.81</ele><time>2026-01-13T19:49:08.000Z</time></trkpt>
        <trkpt lat="29.5053325" lon="104.3349673"><ele>737.33</ele><time>2026-01-13T19:49:18.000Z</time></trkpt>
        <trkpt lat="29.5053976" lon="104.335059"><ele>737.24</ele><time>2026-01-13T19:49:30.000Z</time></trkpt>
        <trkpt lat="29.5054813" lon="104.3351169"><ele>737.1</ele><time>2026-01-13T19:49:40.000Z</time></trkpt>
        <trkpt lat="29.5055708" lon="104.3351449"><ele>737.34</ele><time>2026-01-13T19:49:50.000Z</time></trkpt>
        <trkpt lat="29.5056725" lon="104.335143"><ele>737.08</ele><time>2026-01-13T19:50:02.000Z</time></trkpt>
        <trkpt lat="29.5057619" lon="104.3350929"><ele>736.93</ele><time>2026-01-13T19:50:12.000Z</time></trkpt>
        <trkpt lat="29.5058268" lon="104.3349939"><ele>736.84</ele><time>2026-01-13T19:50:24.000Z</time></trkpt>
        <trkpt lat="29.5058665" lon="104.3348838"><ele>736.72</ele><time>2026-01-13T19:50:34.000Z</time></trkpt>
        <trkpt lat="29.505889" lon="104.3347726"><ele>737.01</ele><time>2026-01-13T19:50:46.000Z</time></trkpt>
        <trkpt lat="29.5058779" lon="104.3346533"><ele>738.17</ele><time>2026-01-13T19:51:00.000Z</time></trkpt>
        <trkpt lat="29.5058495" lon="104.3345347"><ele>739.35</ele><time>2026-01-13T19:51:12.000Z</time></trkpt>
        <trkpt lat="29.505893" lon="104.3344405"><ele>740.2</ele><time>2026-01-13T19:51:26.000Z</time></trkpt>
        <trkpt lat="29.505974" lon="104.3343814"><ele>743.08</ele><time>2026-01-13T19:51:40.000Z</time></trkpt>
        <trkpt lat="29.5060497" lon="104.3343151"><ele>745.81</ele><time>2026-01-13T19:51:52.000Z</time></trkpt>
        <trkpt lat="29.5060853" lon="104.3342161"><ele>746.39</ele><time>2026-01-13T19:52:04.000Z</time></trkpt>
        <trkpt lat="29.5060831" lon="104.3341117"><ele>747.59</ele><time>2026-01-13T19:52:16.000Z</time></trkpt>
        <trkpt lat="29.506098" lon="104.3339969"><ele>748.2</ele><time>2026-01-13T19:52:28.000Z</time></trkpt>
        <trkpt lat="29.5061377" lon="104.3339009"><ele>748.1</ele><time>2026-01-13T19:52:40.000Z</time></trkpt>
        <trkpt lat="29.5062127" lon="104.333827"><ele>747.96</ele><time>2026-01-13T19:52:54.000Z</time></trkpt>
        <trkpt lat="29.5063095" lon="104.3338099"><ele>748.17</ele><time>2026-01-13T19:53:06.000Z</time></trkpt>
        <trkpt lat="29.5064176" lon="104.3338486"><ele>748.2</ele><time>2026-01-13T19:53:16.000Z</time></trkpt>
        <trkpt lat="29.5064984" lon="104.3339264"><ele>748.55</ele><time>2026-01-13T19:53:26.000Z</time></trkpt>
        <trkpt lat="29.5065401" lon="104.3340347"><ele>748.04</ele><time>2026-01-13T19:53:36.000Z</time></trkpt>
        <trkpt lat="29.5065789" lon="104.3341431"><ele>748.49</ele><time>2026-01-13T19:53:46.000Z</time></trkpt>
        <trkpt lat="29.5066493" lon="104.3342183"><ele>749.21</ele><time>2026-01-13T19:53:56.000Z</time></trkpt>
        <trkpt lat="29.5067424" lon="104.3342056"><ele>750.55</ele><time>2026-01-13T19:54:06.000Z</time></trkpt>
        <trkpt lat="29.506821" lon="104.3341231"><ele>751.8</ele><time>2026-01-13T19:54:18.000Z</time></trkpt>
        <trkpt lat="29.5068779" lon="104.3340182"><ele>752.84</ele><time>2026-01-13T19:54:30.000Z</time></trkpt>
        <trkpt lat="29.5069584" lon="104.333985"><ele>753.32</ele><time>2026-01-13T19:54:44.000Z</time></trkpt>
        <trkpt lat="29.5070426" lon="104.3340146"><ele>754.07</ele><time>2026-01-13T19:54:54.000Z</time></trkpt>
        <trkpt lat="29.5071012" lon="104.3340968"><ele>754.5</ele><time>2026-01-13T19:55:06.000Z</time></trkpt>
        <trkpt lat="29.5071645" lon="104.3341878"><ele>754.34</ele><time>2026-01-13T19:55:18.000Z</time></trkpt>
        <trkpt lat="29.5072595" lon="104.3342386"><ele>754.46</ele><time>2026-01-13T19:55:30.000Z</time></trkpt>
        <trkpt lat="29.5073565" lon="104.3343001"><ele>755.13</ele><time>2026-01-13T19:55:42.000Z</time></trkpt>
        <trkpt lat="29.5074362" lon="104.3343715"><ele>755.73</ele><time>2026-01-13T19:55:52.000Z</time></trkpt>
        <trkpt lat="29.5075287" lon="104.334435"><ele>756.4</ele><time>2026-01-13T19:56:02.000Z</time></trkpt>
        <trkpt lat="29.5076177" lon="104.334403"><ele>757.14</ele><time>2026-01-13T19:56:12.000Z</time></trkpt>
        <trkpt lat="29.5076793" lon="104.3343193"><ele>758.16</ele><time>2026-01-13T19:56:20.000Z</time></trkpt>
        <trkpt lat="29.5077185" lon="104.3342105"><ele>759.18</ele><time>2026-01-13T19:56:30.000Z</time></trkpt>
        <trkpt lat="29.5077913" lon="104.3341826"><ele>759.65</ele><time>2026-01-13T19:56:38.000Z</time></trkpt>
        <trkpt lat="29.5078881" lon="104.3342033"><ele>759.93</ele><time>2026-01-13T19:56:50.000Z</time></trkpt>
        <trkpt lat="29.507988" lon="104.3342528"><ele>760.82</ele><time>2026-01-13T19:57:00.000Z</time></trkpt>
        <trkpt lat="29.5080802" lon="104.3342998"><ele>762.08</ele><time>2026-01-13T19:57:10.000Z</time></trkpt>
        <trkpt lat="29.5081779" lon="104.3343442"><ele>762.8</ele><time>2026-01-13T19:57:22.000Z</time></trkpt>
        <trkpt lat="29.5082776" lon="104.3343248"><ele>763.31</ele><time>2026-01-13T19:57:34.000Z</time></trkpt>
        <trkpt lat="29.5083708" lon="104.3342934"><ele>764.23</ele><time>2026-01-13T19:57:44.000Z</time></trkpt>
        <trkpt lat="29.5084617" lon="104.3342943"><ele>765.17</ele><time>2026-01-13T19:57:54.000Z</time></trkpt>
        <trkpt lat="29.5085563" lon="104.334316"><ele>767.43</ele><time>2026-01-13T19:58:12.000Z</time></trkpt>
        <trkpt lat="29.5086501" lon="104.3343368"><ele>769.06</ele><time>2026-01-13T19:58:26.000Z</time></trkpt>
        <trkpt lat="29.5087293" lon="104.3343967"><ele>771.01</ele><time>2026-01-13T20:00:34.000Z</time></trkpt>
        <trkpt lat="29.5087798" lon="104.334503"><ele>773.6</ele><time>2026-01-13T20:00:44.000Z</time></trkpt>
        <trkpt lat="29.5088555" lon="104.3344796"><ele>774.02</ele><time>2026-01-13T20:01:16.000Z</time></trkpt>
        <trkpt lat="29.5089462" lon="104.3344819"><ele>772.52</ele><time>2026-01-13T20:01:26.000Z</time></trkpt>
        <trkpt lat="29.5090328" lon="104.3344448"><ele>771.29</ele><time>2026-01-13T20:01:36.000Z</time></trkpt>
        <trkpt lat="29.5090953" lon="104.3343656"><ele>770.83</ele><time>2026-01-13T20:01:46.000Z</time></trkpt>
        <trkpt lat="29.5091079" lon="104.3342451"><ele>771.16</ele><time>2026-01-13T20:02:14.000Z</time></trkpt>
        <trkpt lat="29.5090876" lon="104.3341179"><ele>771.5</ele><time>2026-01-13T20:02:26.000Z</time></trkpt>
        <trkpt lat="29.5090612" lon="104.3339953"><ele>771.19</ele><time>2026-01-13T20:02:36.000Z</time></trkpt>
        <trkpt lat="29.5090651" lon="104.3338795"><ele>771.25</ele><time>2026-01-13T20:02:48.000Z</time></trkpt>
        <trkpt lat="29.5090348" lon="104.3337794"><ele>771.26</ele><time>2026-01-13T20:03:00.000Z</time></trkpt>
        <trkpt lat="29.5089856" lon="104.3336698"><ele>771.05</ele><time>2026-01-13T20:03:08.000Z</time></trkpt>
        <trkpt lat="29.5089247" lon="104.3335814"><ele>770.88</ele><time>2026-01-13T20:03:16.000Z</time></trkpt>
        <trkpt lat="29.5088615" lon="104.3334879"><ele>770.35</ele><time>2026-01-13T20:03:28.000Z</time></trkpt>
        <trkpt lat="29.5087863" lon="104.3334086"><ele>769.81</ele><time>2026-01-13T20:03:38.000Z</time></trkpt>
        <trkpt lat="29.5087448" lon="104.3333123"><ele>769.02</ele><time>2026-01-13T20:03:48.000Z</time></trkpt>
        <trkpt lat="29.5088082" lon="104.3332644"><ele>767.6</ele><time>2026-01-13T20:03:56.000Z</time></trkpt>
        <trkpt lat="29.5089118" lon="104.3332641"><ele>767.08</ele><time>2026-01-13T20:04:06.000Z</time></trkpt>
        <trkpt lat="29.5090287" lon="104.3332846"><ele>767.29</ele><time>2026-01-13T20:04:16.000Z</time></trkpt>
        <trkpt lat="29.5091377" lon="104.3332996"><ele>767.79</ele><time>2026-01-13T20:04:26.000Z</time></trkpt>
        <trkpt lat="29.5092448" lon="104.3333198"><ele>768.03</ele><time>2026-01-13T20:04:40.000Z</time></trkpt>
        <trkpt lat="29.5093362" lon="104.3332925"><ele>768.25</ele><time>2026-01-13T20:04:54.000Z</time></trkpt>
        <trkpt lat="29.5093974" lon="104.3332023"><ele>767.95</ele><time>2026-01-13T20:05:14.000Z</time></trkpt>
        <trkpt lat="29.5094378" lon="104.3330949"><ele>768.14</ele><time>2026-01-13T20:05:22.000Z</time></trkpt>
        <trkpt lat="29.5094995" lon="104.3330014"><ele>768.37</ele><time>2026-01-13T20:05:32.000Z</time></trkpt>
        <trkpt lat="29.5095648" lon="104.3329127"><ele>770.71</ele><time>2026-01-13T20:05:48.000Z</time></trkpt>
        <trkpt lat="29.5096453" lon="104.3328352"><ele>771.07</ele><time>2026-01-13T20:06:02.000Z</time></trkpt>
        <trkpt lat="29.5097282" lon="104.3327588"><ele>770.55</ele><time>2026-01-13T20:06:14.000Z</time></trkpt>
        <trkpt lat="29.5098217" lon="104.3327091"><ele>772</ele><time>2026-01-13T20:06:22.000Z</time></trkpt>
        <trkpt lat="29.5099142" lon="104.332685"><ele>772.99</ele><time>2026-01-13T20:06:32.000Z</time></trkpt>
        <trkpt lat="29.5100095" lon="104.3326733"><ele>774.21</ele><time>2026-01-13T20:06:42.000Z</time></trkpt>
        <trkpt lat="29.51011" lon="104.3326424"><ele>775.3</ele><time>2026-01-13T20:06:54.000Z</time></trkpt>
        <trkpt lat="29.5101933" lon="104.3325925"><ele>776.05</ele><time>2026-01-13T20:07:04.000Z</time></trkpt>
        <trkpt lat="29.5102623" lon="104.3325206"><ele>777.02</ele><time>2026-01-13T20:07:14.000Z</time></trkpt>
        <trkpt lat="29.5103371" lon="104.3324394"><ele>778.11</ele><time>2026-01-13T20:07:24.000Z</time></trkpt>
        <trkpt lat="29.5104211" lon="104.3323732"><ele>779.85</ele><time>2026-01-13T20:07:34.000Z</time></trkpt>
        <trkpt lat="29.5105161" lon="104.3323715"><ele>781.55</ele><time>2026-01-13T20:07:52.000Z</time></trkpt>
        <trkpt lat="29.5105907" lon="104.3324489"><ele>782.23</ele><time>2026-01-13T20:08:02.000Z</time></trkpt>
        <trkpt lat="29.5106467" lon="104.3325595"><ele>782.53</ele><time>2026-01-13T20:08:14.000Z</time></trkpt>
        <trkpt lat="29.5107068" lon="104.3326513"><ele>783.46</ele><time>2026-01-13T20:08:24.000Z</time></trkpt>
        <trkpt lat="29.510798" lon="104.3326645"><ele>784.24</ele><time>2026-01-13T20:08:36.000Z</time></trkpt>
        <trkpt lat="29.510868" lon="104.3325908"><ele>784.47</ele><time>2026-01-13T20:08:44.000Z</time></trkpt>
        <trkpt lat="29.5108921" lon="104.3324704"><ele>783.7</ele><time>2026-01-13T20:09:26.000Z</time></trkpt>
        <trkpt lat="29.5109249" lon="104.3323455"><ele>782.93</ele><time>2026-01-13T20:09:34.000Z</time></trkpt>
        <trkpt lat="29.5109858" lon="104.3322522"><ele>782.13</ele><time>2026-01-13T20:09:48.000Z</time></trkpt>
        <trkpt lat="29.5110837" lon="104.3322244"><ele>781.35</ele><time>2026-01-13T20:09:56.000Z</time></trkpt>
        <trkpt lat="29.5111872" lon="104.3322407"><ele>781.18</ele><time>2026-01-13T20:10:04.000Z</time></trkpt>
        <trkpt lat="29.5112861" lon="104.3322856"><ele>781.35</ele><time>2026-01-13T20:10:12.000Z</time></trkpt>
        <trkpt lat="29.5113888" lon="104.3323442"><ele>781.85</ele><time>2026-01-13T20:10:20.000Z</time></trkpt>
        <trkpt lat="29.5114773" lon="104.3324073"><ele>782.52</ele><time>2026-01-13T20:10:28.000Z</time></trkpt>
        <trkpt lat="29.5115831" lon="104.3324042"><ele>782.87</ele><time>2026-01-13T20:10:38.000Z</time></trkpt>
        <trkpt lat="29.51166" lon="104.3323275"><ele>783.31</ele><time>2026-01-13T20:10:46.000Z</time></trkpt>
        <trkpt lat="29.5116646" lon="104.3322538"><ele>783.38</ele><time>2026-01-13T20:10:56.000Z</time></trkpt>
        <trkpt lat="29.511619" lon="104.3321443"><ele>785.32</ele><time>2026-01-13T20:11:24.000Z</time></trkpt>
        <trkpt lat="29.5116077" lon="104.3320219"><ele>782.28</ele><time>2026-01-13T20:11:34.000Z</time></trkpt>
        <trkpt lat="29.5116203" lon="104.3318993"><ele>778.68</ele><time>2026-01-13T20:11:42.000Z</time></trkpt>
        <trkpt lat="29.5116502" lon="104.3317887"><ele>777.28</ele><time>2026-01-13T20:11:52.000Z</time></trkpt>
        <trkpt lat="29.5117184" lon="104.331702"><ele>776.87</ele><time>2026-01-13T20:12:02.000Z</time></trkpt>
        <trkpt lat="29.5118168" lon="104.331692"><ele>778.22</ele><time>2026-01-13T20:12:14.000Z</time></trkpt>
        <trkpt lat="29.511917" lon="104.3317254"><ele>779.96</ele><time>2026-01-13T20:12:22.000Z</time></trkpt>
        <trkpt lat="29.5120102" lon="104.3317816"><ele>781.37</ele><time>2026-01-13T20:12:28.000Z</time></trkpt>
        <trkpt lat="29.5121038" lon="104.3318004"><ele>782.54</ele><time>2026-01-13T20:12:36.000Z</time></trkpt>
        <trkpt lat="29.5121797" lon="104.3317429"><ele>783.59</ele><time>2026-01-13T20:12:44.000Z</time></trkpt>
        <trkpt lat="29.5122347" lon="104.3316492"><ele>783.69</ele><time>2026-01-13T20:12:52.000Z</time></trkpt>
        <trkpt lat="29.512301" lon="104.3315588"><ele>782.74</ele><time>2026-01-13T20:13:00.000Z</time></trkpt>
        <trkpt lat="29.5123656" lon="104.3314598"><ele>781.99</ele><time>2026-01-13T20:13:10.000Z</time></trkpt>
        <trkpt lat="29.5123746" lon="104.331347"><ele>781.54</ele><time>2026-01-13T20:13:22.000Z</time></trkpt>
        <trkpt lat="29.5123409" lon="104.3312402"><ele>780.97</ele><time>2026-01-13T20:13:36.000Z</time></trkpt>
        <trkpt lat="29.5122701" lon="104.3311616"><ele>779.74</ele><time>2026-01-13T20:13:44.000Z</time></trkpt>
        <trkpt lat="29.5121894" lon="104.3310783"><ele>779.22</ele><time>2026-01-13T20:13:54.000Z</time></trkpt>
        <trkpt lat="29.5121234" lon="104.3309893"><ele>778.98</ele><time>2026-01-13T20:14:06.000Z</time></trkpt>
        <trkpt lat="29.5121103" lon="104.3308781"><ele>779.5</ele><time>2026-01-13T20:14:16.000Z</time></trkpt>
        <trkpt lat="29.5121379" lon="104.3307648"><ele>779.77</ele><time>2026-01-13T20:14:28.000Z</time></trkpt>
        <trkpt lat="29.5121541" lon="104.3306394"><ele>780.73</ele><time>2026-01-13T20:14:40.000Z</time></trkpt>
        <trkpt lat="29.5120987" lon="104.3305538"><ele>781.3</ele><time>2026-01-13T20:14:50.000Z</time></trkpt>
        <trkpt lat="29.5120079" lon="104.3304936"><ele>782.65</ele><time>2026-01-13T20:15:02.000Z</time></trkpt>
        <trkpt lat="29.5119433" lon="104.3304142"><ele>784.13</ele><time>2026-01-13T20:15:12.000Z</time></trkpt>
        <trkpt lat="29.5118979" lon="104.3303083"><ele>785.56</ele><time>2026-01-13T20:15:24.000Z</time></trkpt>
        <trkpt lat="29.5118972" lon="104.3301865"><ele>786.68</ele><time>2026-01-13T20:15:36.000Z</time></trkpt>
        <trkpt lat="29.5119009" lon="104.330065"><ele>786.84</ele><time>2026-01-13T20:15:46.000Z</time></trkpt>
        <trkpt lat="29.51189" lon="104.3299542"><ele>787.64</ele><time>2026-01-13T20:15:58.000Z</time></trkpt>
        <trkpt lat="29.5118235" lon="104.3298965"><ele>788.16</ele><time>2026-01-13T20:16:06.000Z</time></trkpt>
        <trkpt lat="29.5117269" lon="104.3299036"><ele>789.65</ele><time>2026-01-13T20:16:16.000Z</time></trkpt>
        <trkpt lat="29.5116287" lon="104.3299274"><ele>790.93</ele><time>2026-01-13T20:16:24.000Z</time></trkpt>
        <trkpt lat="29.5115197" lon="104.3299407"><ele>791.95</ele><time>2026-01-13T20:16:36.000Z</time></trkpt>
        <trkpt lat="29.5114076" lon="104.3299425"><ele>792.84</ele><time>2026-01-13T20:16:46.000Z</time></trkpt>
        <trkpt lat="29.511306" lon="104.3299401"><ele>793.92</ele><time>2026-01-13T20:16:58.000Z</time></trkpt>
        <trkpt lat="29.5112084" lon="104.329943"><ele>794.18</ele><time>2026-01-13T20:17:10.000Z</time></trkpt>
        <trkpt lat="29.5111521" lon="104.3298747"><ele>794.85</ele><time>2026-01-13T20:17:28.000Z</time></trkpt>
        <trkpt lat="29.5110977" lon="104.3297618"><ele>794.62</ele><time>2026-01-13T20:17:38.000Z</time></trkpt>
        <trkpt lat="29.5110602" lon="104.3296406"><ele>794.16</ele><time>2026-01-13T20:17:52.000Z</time></trkpt>
        <trkpt lat="29.51104" lon="104.3295117"><ele>793.54</ele><time>2026-01-13T20:18:04.000Z</time></trkpt>
        <trkpt lat="29.5110526" lon="104.3293932"><ele>792.92</ele><time>2026-01-13T20:18:16.000Z</time></trkpt>
        <trkpt lat="29.5110738" lon="104.3292824"><ele>791.42</ele><time>2026-01-13T20:18:26.000Z</time></trkpt>
        <trkpt lat="29.5110524" lon="104.3291749"><ele>789.96</ele><time>2026-01-13T20:18:40.000Z</time></trkpt>
        <trkpt lat="29.5109985" lon="104.3290818"><ele>788.5</ele><time>2026-01-13T20:18:58.000Z</time></trkpt>
        <trkpt lat="29.5109121" lon="104.3289993"><ele>786.77</ele><time>2026-01-13T20:19:16.000Z</time></trkpt>
        <trkpt lat="29.5108262" lon="104.3289383"><ele>784.42</ele><time>2026-01-13T20:19:26.000Z</time></trkpt>
        <trkpt lat="29.5107313" lon="104.3289085"><ele>781.98</ele><time>2026-01-13T20:19:32.000Z</time></trkpt>
        <trkpt lat="29.5106462" lon="104.3289452"><ele>780.45</ele><time>2026-01-13T20:19:42.000Z</time></trkpt>
        <trkpt lat="29.5105507" lon="104.3289868"><ele>780.16</ele><time>2026-01-13T20:19:54.000Z</time></trkpt>
        <trkpt lat="29.5104467" lon="104.3289739"><ele>779.96</ele><time>2026-01-13T20:20:04.000Z</time></trkpt>
        <trkpt lat="29.5103436" lon="104.328964"><ele>779.62</ele><time>2026-01-13T20:20:14.000Z</time></trkpt>
        <trkpt lat="29.5102435" lon="104.3289692"><ele>780</ele><time>2026-01-13T20:20:24.000Z</time></trkpt>
        <trkpt lat="29.5101444" lon="104.3289973"><ele>780.14</ele><time>2026-01-13T20:20:38.000Z</time></trkpt>
        <trkpt lat="29.5100475" lon="104.3289842"><ele>780.19</ele><time>2026-01-13T20:20:46.000Z</time></trkpt>
        <trkpt lat="29.5099718" lon="104.3289107"><ele>780.28</ele><time>2026-01-13T20:20:58.000Z</time></trkpt>
        <trkpt lat="29.5099145" lon="104.3288104"><ele>780.34</ele><time>2026-01-13T20:21:08.000Z</time></trkpt>
        <trkpt lat="29.5098618" lon="104.3286969"><ele>780.07</ele><time>2026-01-13T20:21:18.000Z</time></trkpt>
        <trkpt lat="29.5097728" lon="104.3286463"><ele>779.59</ele><time>2026-01-13T20:21:28.000Z</time></trkpt>
        <trkpt lat="29.5096802" lon="104.3286291"><ele>779.87</ele><time>2026-01-13T20:21:40.000Z</time></trkpt>
        <trkpt lat="29.509587" lon="104.3286071"><ele>780.65</ele><time>2026-01-13T20:21:50.000Z</time></trkpt>
        <trkpt lat="29.5095127" lon="104.3285334"><ele>781.78</ele><time>2026-01-13T20:22:02.000Z</time></trkpt>
        <trkpt lat="29.5094724" lon="104.3284368"><ele>783.11</ele><time>2026-01-13T20:22:10.000Z</time></trkpt>
        <trkpt lat="29.5094397" lon="104.3283335"><ele>783.73</ele><time>2026-01-13T20:22:20.000Z</time></trkpt>
        <trkpt lat="29.5094217" lon="104.3282234"><ele>784.61</ele><time>2026-01-13T20:22:32.000Z</time></trkpt>
        <trkpt lat="29.5093972" lon="104.3281081"><ele>785.61</ele><time>2026-01-13T20:22:42.000Z</time></trkpt>
        <trkpt lat="29.5094039" lon="104.3279967"><ele>785.69</ele><time>2026-01-13T20:22:56.000Z</time></trkpt>
        <trkpt lat="29.5093756" lon="104.3278854"><ele>785.91</ele><time>2026-01-13T20:23:12.000Z</time></trkpt>
        <trkpt lat="29.5094028" lon="104.3279308"><ele>785.64</ele><time>2026-01-13T20:23:46.000Z</time></trkpt>
        <trkpt lat="29.5093394" lon="104.3279259"><ele>785.68</ele><time>2026-01-13T20:24:02.000Z</time></trkpt>
        <trkpt lat="29.5092507" lon="104.3278955"><ele>785.69</ele><time>2026-01-13T20:24:16.000Z</time></trkpt>
        <trkpt lat="29.509205" lon="104.3278084"><ele>785.84</ele><time>2026-01-13T20:24:34.000Z</time></trkpt>
        <trkpt lat="29.509138" lon="104.3277263"><ele>787</ele><time>2026-01-13T20:24:52.000Z</time></trkpt>
        <trkpt lat="29.5090489" lon="104.3276972"><ele>788.4</ele><time>2026-01-13T20:25:00.000Z</time></trkpt>
        <trkpt lat="29.5089496" lon="104.3276699"><ele>789.58</ele><time>2026-01-13T20:25:10.000Z</time></trkpt>
        <trkpt lat="29.5088508" lon="104.3276784"><ele>790.6</ele><time>2026-01-13T20:25:22.000Z</time></trkpt>
        <trkpt lat="29.5087479" lon="104.327697"><ele>791.32</ele><time>2026-01-13T20:25:32.000Z</time></trkpt>
        <trkpt lat="29.5086374" lon="104.3276912"><ele>791.65</ele><time>2026-01-13T20:25:42.000Z</time></trkpt>
        <trkpt lat="29.5085315" lon="104.3277032"><ele>791.34</ele><time>2026-01-13T20:25:50.000Z</time></trkpt>
        <trkpt lat="29.5084304" lon="104.3277008"><ele>791.31</ele><time>2026-01-13T20:25:58.000Z</time></trkpt>
        <trkpt lat="29.5083433" lon="104.3277321"><ele>791.27</ele><time>2026-01-13T20:26:12.000Z</time></trkpt>
        <trkpt lat="29.5082476" lon="104.327731"><ele>791.24</ele><time>2026-01-13T20:26:24.000Z</time></trkpt>
        <trkpt lat="29.5081585" lon="104.3276943"><ele>790.47</ele><time>2026-01-13T20:27:10.000Z</time></trkpt>
        <trkpt lat="29.5081241" lon="104.3275662"><ele>789.38</ele><time>2026-01-13T20:28:42.000Z</time></trkpt>
        <trkpt lat="29.5081394" lon="104.3274582"><ele>787.76</ele><time>2026-01-13T20:28:56.000Z</time></trkpt>
        <trkpt lat="29.5081157" lon="104.3273364"><ele>783.74</ele><time>2026-01-13T20:29:04.000Z</time></trkpt>
        <trkpt lat="29.5080296" lon="104.3273149"><ele>782.71</ele><time>2026-01-13T20:29:30.000Z</time></trkpt>
        <trkpt lat="29.5079301" lon="104.327326"><ele>781.84</ele><time>2026-01-13T20:29:44.000Z</time></trkpt>
        <trkpt lat="29.5078372" lon="104.3272949"><ele>780.41</ele><time>2026-01-13T20:29:56.000Z</time></trkpt>
        <trkpt lat="29.5077471" lon="104.3272379"><ele>779.38</ele><time>2026-01-13T20:30:10.000Z</time></trkpt>
        <trkpt lat="29.5076703" lon="104.3271613"><ele>779.75</ele><time>2026-01-13T20:30:20.000Z</time></trkpt>
        <trkpt lat="29.5075782" lon="104.3271125"><ele>779.24</ele><time>2026-01-13T20:30:30.000Z</time></trkpt>
        <trkpt lat="29.5074733" lon="104.3271016"><ele>778.78</ele><time>2026-01-13T20:30:40.000Z</time></trkpt>
        <trkpt lat="29.5073812" lon="104.3270768"><ele>778.34</ele><time>2026-01-13T20:30:48.000Z</time></trkpt>
        <trkpt lat="29.5072856" lon="104.327064"><ele>777.49</ele><time>2026-01-13T20:31:04.000Z</time></trkpt>
        <trkpt lat="29.5072692" lon="104.3269769"><ele>775.61</ele><time>2026-01-13T20:31:20.000Z</time></trkpt>
        <trkpt lat="29.5072999" lon="104.3268631"><ele>773.43</ele><time>2026-01-13T20:31:38.000Z</time></trkpt>
        <trkpt lat="29.5073208" lon="104.3267455"><ele>772.24</ele><time>2026-01-13T20:31:48.000Z</time></trkpt>
        <trkpt lat="29.5072957" lon="104.3266257"><ele>772.03</ele><time>2026-01-13T20:31:58.000Z</time></trkpt>
        <trkpt lat="29.5072629" lon="104.3265145"><ele>771.87</ele><time>2026-01-13T20:32:06.000Z</time></trkpt>
        <trkpt lat="29.5072245" lon="104.3264111"><ele>770.85</ele><time>2026-01-13T20:32:14.000Z</time></trkpt>
        <trkpt lat="29.5071334" lon="104.3263408"><ele>769.69</ele><time>2026-01-13T20:32:36.000Z</time></trkpt>
        <trkpt lat="29.5070363" lon="104.3263093"><ele>767.66</ele><time>2026-01-13T20:32:54.000Z</time></trkpt>
        <trkpt lat="29.5069364" lon="104.3262725"><ele>765.85</ele><time>2026-01-13T20:33:16.000Z</time></trkpt>
        <trkpt lat="29.5068392" lon="104.3262484"><ele>764.25</ele><time>2026-01-13T20:33:28.000Z</time></trkpt>
        <trkpt lat="29.5067446" lon="104.3262151"><ele>763.86</ele><time>2026-01-13T20:33:40.000Z</time></trkpt>
        <trkpt lat="29.5066448" lon="104.3262058"><ele>764.29</ele><time>2026-01-13T20:33:50.000Z</time></trkpt>
        <trkpt lat="29.5065507" lon="104.3261874"><ele>765.25</ele><time>2026-01-13T20:34:00.000Z</time></trkpt>
        <trkpt lat="29.5064587" lon="104.3261688"><ele>766.03</ele><time>2026-01-13T20:34:12.000Z</time></trkpt>
        <trkpt lat="29.5063671" lon="104.3261322"><ele>767.35</ele><time>2026-01-13T20:34:24.000Z</time></trkpt>
        <trkpt lat="29.506287" lon="104.326065"><ele>768.03</ele><time>2026-01-13T20:34:36.000Z</time></trkpt>
        <trkpt lat="29.5062" lon="104.3260135"><ele>769.67</ele><time>2026-01-13T20:34:56.000Z</time></trkpt>
        <trkpt lat="29.5061048" lon="104.326005"><ele>771.44</ele><time>2026-01-13T20:35:10.000Z</time></trkpt>
        <trkpt lat="29.506013" lon="104.3260197"><ele>771.91</ele><time>2026-01-13T20:35:26.000Z</time></trkpt>
        <trkpt lat="29.505917" lon="104.3260614"><ele>772.6</ele><time>2026-01-13T20:35:38.000Z</time></trkpt>
        <trkpt lat="29.5058311" lon="104.3261136"><ele>773.35</ele><time>2026-01-13T20:35:48.000Z</time></trkpt>
        <trkpt lat="29.5057467" lon="104.3261836"><ele>773.89</ele><time>2026-01-13T20:36:00.000Z</time></trkpt>
        <trkpt lat="29.5056641" lon="104.3262474"><ele>774.37</ele><time>2026-01-13T20:36:10.000Z</time></trkpt>
        <trkpt lat="29.5055723" lon="104.3263049"><ele>774.82</ele><time>2026-01-13T20:36:22.000Z</time></trkpt>
        <trkpt lat="29.5054904" lon="104.32636"><ele>775.27</ele><time>2026-01-13T20:36:36.000Z</time></trkpt>
        <trkpt lat="29.5054858" lon="104.3264636"><ele>775.43</ele><time>2026-01-13T20:36:50.000Z</time></trkpt>
        <trkpt lat="29.5054635" lon="104.3265761"><ele>774.34</ele><time>2026-01-13T20:37:06.000Z</time></trkpt>
        <trkpt lat="29.5053938" lon="104.3265977"><ele>773.14</ele><time>2026-01-13T20:37:16.000Z</time></trkpt>
        <trkpt lat="29.5053007" lon="104.3265983"><ele>772.29</ele><time>2026-01-13T20:37:28.000Z</time></trkpt>
        <trkpt lat="29.5051914" lon="104.326605"><ele>771.42</ele><time>2026-01-13T20:37:40.000Z</time></trkpt>
        <trkpt lat="29.5050939" lon="104.3266444"><ele>770.33</ele><time>2026-01-13T20:37:50.000Z</time></trkpt>
        <trkpt lat="29.505003" lon="104.3267101"><ele>769.4</ele><time>2026-01-13T20:38:04.000Z</time></trkpt>
        <trkpt lat="29.5049194" lon="104.326778"><ele>768.07</ele><time>2026-01-13T20:38:14.000Z</time></trkpt>
        <trkpt lat="29.5048378" lon="104.3268315"><ele>766.57</ele><time>2026-01-13T20:38:26.000Z</time></trkpt>
        <trkpt lat="29.5047521" lon="104.3268651"><ele>764.86</ele><time>2026-01-13T20:38:38.000Z</time></trkpt>
        <trkpt lat="29.5046684" lon="104.3269094"><ele>762.65</ele><time>2026-01-13T20:38:58.000Z</time></trkpt>
        <trkpt lat="29.504578" lon="104.326907"><ele>760.44</ele><time>2026-01-13T20:39:10.000Z</time></trkpt>
        <trkpt lat="29.5044755" lon="104.3268605"><ele>759.47</ele><time>2026-01-13T20:39:38.000Z</time></trkpt>
        <trkpt lat="29.5043918" lon="104.3267924"><ele>757.83</ele><time>2026-01-13T20:39:46.000Z</time></trkpt>
        <trkpt lat="29.5043029" lon="104.326783"><ele>755.95</ele><time>2026-01-13T20:40:06.000Z</time></trkpt>
        <trkpt lat="29.5042193" lon="104.326832"><ele>753.44</ele><time>2026-01-13T20:40:14.000Z</time></trkpt>
        <trkpt lat="29.5041312" lon="104.3268753"><ele>749.79</ele><time>2026-01-13T20:40:26.000Z</time></trkpt>
        <trkpt lat="29.5041079" lon="104.3268119"><ele>746.76</ele><time>2026-01-13T20:41:18.000Z</time></trkpt>
        <trkpt lat="29.5041164" lon="104.3266999"><ele>740.42</ele><time>2026-01-13T20:42:00.000Z</time></trkpt>
        <trkpt lat="29.5040598" lon="104.3266053"><ele>732.12</ele><time>2026-01-13T20:43:30.000Z</time></trkpt>
        <trkpt lat="29.5039659" lon="104.3265733"><ele>725.61</ele><time>2026-01-13T20:44:00.000Z</time></trkpt>
        <trkpt lat="29.5039101" lon="104.3264918"><ele>717.4</ele><time>2026-01-13T20:44:16.000Z</time></trkpt>
        <trkpt lat="29.5038491" lon="104.326404"><ele>708.74</ele><time>2026-01-13T20:44:32.000Z</time></trkpt>
        <trkpt lat="29.5037867" lon="104.3263173"><ele>701.62</ele><time>2026-01-13T20:44:50.000Z</time></trkpt>
        <trkpt lat="29.5036949" lon="104.3262724"><ele>695</ele><time>2026-01-13T20:45:42.000Z</time></trkpt>
        <trkpt lat="29.5036023" lon="104.326285"><ele>687.4</ele><time>2026-01-13T20:45:52.000Z</time></trkpt>
        <trkpt lat="29.5034982" lon="104.3263076"><ele>682.77</ele><time>2026-01-13T20:46:02.000Z</time></trkpt>
        <trkpt lat="29.5033993" lon="104.3263267"><ele>678.6</ele><time>2026-01-13T20:46:12.000Z</time></trkpt>
        <trkpt lat="29.5033019" lon="104.326336"><ele>675.59</ele><time>2026-01-13T20:46:22.000Z</time></trkpt>
        <trkpt lat="29.5032199" lon="104.3263864"><ele>673.04</ele><time>2026-01-13T20:46:32.000Z</time></trkpt>
        <trkpt lat="29.5031578" lon="104.3264641"><ele>670.87</ele><time>2026-01-13T20:46:42.000Z</time></trkpt>
        <trkpt lat="29.5030845" lon="104.3265432"><ele>669.01</ele><time>2026-01-13T20:46:54.000Z</time></trkpt>
        <trkpt lat="29.5029967" lon="104.3265981"><ele>666.98</ele><time>2026-01-13T20:47:04.000Z</time></trkpt>
        <trkpt lat="29.5029079" lon="104.3266541"><ele>664.61</ele><time>2026-01-13T20:47:14.000Z</time></trkpt>
        <trkpt lat="29.5028221" lon="104.3267024"><ele>662.6</ele><time>2026-01-13T20:47:24.000Z</time></trkpt>
        <trkpt lat="29.502736" lon="104.3267529"><ele>660.71</ele><time>2026-01-13T20:47:32.000Z</time></trkpt>
        <trkpt lat="29.5026419" lon="104.3268169"><ele>658.74</ele><time>2026-01-13T20:47:42.000Z</time></trkpt>
        <trkpt lat="29.5025519" lon="104.3268772"><ele>656.49</ele><time>2026-01-13T20:47:52.000Z</time></trkpt>
        <trkpt lat="29.5025301" lon="104.3267652"><ele>654.23</ele><time>2026-01-13T20:49:04.000Z</time></trkpt>
        <trkpt lat="29.5024792" lon="104.3268535"><ele>650.21</ele><time>2026-01-13T20:54:10.000Z</time></trkpt>
        <trkpt lat="29.5024093" lon="104.3269339"><ele>645.81</ele><time>2026-01-13T20:54:24.000Z</time></trkpt>
        <trkpt lat="29.5023217" lon="104.3270237"><ele>643.55</ele><time>2026-01-13T20:55:14.000Z</time></trkpt>
        <trkpt lat="29.5022287" lon="104.3273853"><ele>642.37</ele><time>2026-01-13T20:55:22.000Z</time></trkpt>
        <trkpt lat="29.5022444" lon="104.3276111"><ele>642.49</ele><time>2026-01-13T20:55:24.000Z</time></trkpt>
        <trkpt lat="29.5022739" lon="104.3277869"><ele>642.59</ele><time>2026-01-13T20:55:26.000Z</time></trkpt>
        <trkpt lat="29.5022903" lon="104.3279572"><ele>642.74</ele><time>2026-01-13T20:55:28.000Z</time></trkpt>
        <trkpt lat="29.5023069" lon="104.3281356"><ele>643.01</ele><time>2026-01-13T20:55:30.000Z</time></trkpt>
        <trkpt lat="29.5023428" lon="104.3283159"><ele>643.32</ele><time>2026-01-13T20:55:32.000Z</time></trkpt>
        <trkpt lat="29.5023922" lon="104.3284893"><ele>643.58</ele><time>2026-01-13T20:55:34.000Z</time></trkpt>
        <trkpt lat="29.5024425" lon="104.3286633"><ele>643.77</ele><time>2026-01-13T20:55:36.000Z</time></trkpt>
        <trkpt lat="29.5024764" lon="104.3288245"><ele>644</ele><time>2026-01-13T20:55:38.000Z</time></trkpt>
        <trkpt lat="29.5025041" lon="104.3289771"><ele>644.18</ele><time>2026-01-13T20:55:40.000Z</time></trkpt>
        <trkpt lat="29.5025502" lon="104.3291327"><ele>644.36</ele><time>2026-01-13T20:55:42.000Z</time></trkpt>
        <trkpt lat="29.5026195" lon="104.3292887"><ele>644.61</ele><time>2026-01-13T20:55:44.000Z</time></trkpt>
        <trkpt lat="29.502704" lon="104.3294456"><ele>644.79</ele><time>2026-01-13T20:55:46.000Z</time></trkpt>
        <trkpt lat="29.5027883" lon="104.3296166"><ele>644.83</ele><time>2026-01-13T20:55:48.000Z</time></trkpt>
        <trkpt lat="29.502863" lon="104.3298011"><ele>644.91</ele><time>2026-01-13T20:55:50.000Z</time></trkpt>
        <trkpt lat="29.5029189" lon="104.3299737"><ele>644.86</ele><time>2026-01-13T20:55:52.000Z</time></trkpt>
        <trkpt lat="29.5029816" lon="104.3301154"><ele>644.91</ele><time>2026-01-13T20:55:54.000Z</time></trkpt>
        <trkpt lat="29.5030649" lon="104.3302108"><ele>644.85</ele><time>2026-01-13T20:55:56.000Z</time></trkpt>
        <trkpt lat="29.5031568" lon="104.3302683"><ele>644.6</ele><time>2026-01-13T20:55:58.000Z</time></trkpt>
        <trkpt lat="29.5032354" lon="104.3303218"><ele>644.2</ele><time>2026-01-13T20:56:00.000Z</time></trkpt>
        <trkpt lat="29.5032834" lon="104.3304052"><ele>643.8</ele><time>2026-01-13T20:56:02.000Z</time></trkpt>
        <trkpt lat="29.5032262" lon="104.3305708"><ele>643.62</ele><time>2026-01-13T20:56:06.000Z</time></trkpt>
        <trkpt lat="29.5031039" lon="104.3306312"><ele>643.38</ele><time>2026-01-13T20:56:08.000Z</time></trkpt>
        <trkpt lat="29.5029692" lon="104.3306018"><ele>642.98</ele><time>2026-01-13T20:56:10.000Z</time></trkpt>
        <trkpt lat="29.5028371" lon="104.330551"><ele>642.58</ele><time>2026-01-13T20:56:12.000Z</time></trkpt>
        <trkpt lat="29.5026982" lon="104.3305288"><ele>642.39</ele><time>2026-01-13T20:56:14.000Z</time></trkpt>
        <trkpt lat="29.5025399" lon="104.3305265"><ele>642.29</ele><time>2026-01-13T20:56:16.000Z</time></trkpt>
        <trkpt lat="29.502373" lon="104.3305603"><ele>642.1</ele><time>2026-01-13T20:56:18.000Z</time></trkpt>
        <trkpt lat="29.5022073" lon="104.3306305"><ele>641.9</ele><time>2026-01-13T20:56:20.000Z</time></trkpt>
        <trkpt lat="29.5020575" lon="104.3307151"><ele>641.77</ele><time>2026-01-13T20:56:22.000Z</time></trkpt>
        <trkpt lat="29.5020302" lon="104.330752"><ele>641.7</ele><time>2026-01-13T20:56:34.000Z</time></trkpt>
        <trkpt lat="29.5020384" lon="104.330866"><ele>640.96</ele><time>2026-01-13T20:56:40.000Z</time></trkpt>
        <trkpt lat="29.5021366" lon="104.3309288"><ele>639.86</ele><time>2026-01-13T20:56:42.000Z</time></trkpt>
        <trkpt lat="29.5022714" lon="104.3309245"><ele>639.06</ele><time>2026-01-13T20:56:44.000Z</time></trkpt>
        <trkpt lat="29.5024188" lon="104.3308994"><ele>638.53</ele><time>2026-01-13T20:56:46.000Z</time></trkpt>
        <trkpt lat="29.5025546" lon="104.3308763"><ele>638.23</ele><time>2026-01-13T20:56:48.000Z</time></trkpt>
        <trkpt lat="29.5026835" lon="104.3308618"><ele>638.17</ele><time>2026-01-13T20:56:50.000Z</time></trkpt>
        <trkpt lat="29.5028142" lon="104.3308611"><ele>638.26</ele><time>2026-01-13T20:56:52.000Z</time></trkpt>
        <trkpt lat="29.5029588" lon="104.3308852"><ele>638.33</ele><time>2026-01-13T20:56:54.000Z</time></trkpt>
        <trkpt lat="29.5031243" lon="104.330925"><ele>638.47</ele><time>2026-01-13T20:56:56.000Z</time></trkpt>
        <trkpt lat="29.5033111" lon="104.3309691"><ele>638.68</ele><time>2026-01-13T20:56:58.000Z</time></trkpt>
        <trkpt lat="29.5035022" lon="104.3310094"><ele>638.93</ele><time>2026-01-13T20:57:00.000Z</time></trkpt>
        <trkpt lat="29.5036796" lon="104.3310426"><ele>639.27</ele><time>2026-01-13T20:57:02.000Z</time></trkpt>
        <trkpt lat="29.5038504" lon="104.3310819"><ele>639.62</ele><time>2026-01-13T20:57:04.000Z</time></trkpt>
        <trkpt lat="29.5040287" lon="104.3311547"><ele>640</ele><time>2026-01-13T20:57:06.000Z</time></trkpt>
        <trkpt lat="29.5042113" lon="104.3312335"><ele>640.43</ele><time>2026-01-13T20:57:08.000Z</time></trkpt>
        <trkpt lat="29.504407" lon="104.3312984"><ele>640.83</ele><time>2026-01-13T20:57:10.000Z</time></trkpt>
        <trkpt lat="29.5045994" lon="104.3313726"><ele>641.26</ele><time>2026-01-13T20:57:12.000Z</time></trkpt>
        <trkpt lat="29.5047754" lon="104.3314731"><ele>641.62</ele><time>2026-01-13T20:57:14.000Z</time></trkpt>
        <trkpt lat="29.5049459" lon="104.3315753"><ele>642.11</ele><time>2026-01-13T20:57:16.000Z</time></trkpt>
        <trkpt lat="29.5051155" lon="104.3316382"><ele>642.68</ele><time>2026-01-13T20:57:18.000Z</time></trkpt>
        <trkpt lat="29.5052875" lon="104.3316814"><ele>643.24</ele><time>2026-01-13T20:57:20.000Z</time></trkpt>
        <trkpt lat="29.5054482" lon="104.3317153"><ele>643.84</ele><time>2026-01-13T20:57:22.000Z</time></trkpt>
        <trkpt lat="29.505614" lon="104.3317674"><ele>644.28</ele><time>2026-01-13T20:57:24.000Z</time></trkpt>
        <trkpt lat="29.5057882" lon="104.3318111"><ele>644.73</ele><time>2026-01-13T20:57:26.000Z</time></trkpt>
        <trkpt lat="29.5059755" lon="104.3318069"><ele>645.25</ele><time>2026-01-13T20:57:28.000Z</time></trkpt>
        <trkpt lat="29.5061701" lon="104.3317699"><ele>645.77</ele><time>2026-01-13T20:57:30.000Z</time></trkpt>
        <trkpt lat="29.5063697" lon="104.3317582"><ele>646.33</ele><time>2026-01-13T20:57:32.000Z</time></trkpt>
        <trkpt lat="29.506563" lon="104.3317963"><ele>646.96</ele><time>2026-01-13T20:57:34.000Z</time></trkpt>
        <trkpt lat="29.5067369" lon="104.3318676"><ele>647.65</ele><time>2026-01-13T20:57:36.000Z</time></trkpt>
        <trkpt lat="29.506891" lon="104.3319615"><ele>648.42</ele><time>2026-01-13T20:57:38.000Z</time></trkpt>
        <trkpt lat="29.5070365" lon="104.3320375"><ele>649.32</ele><time>2026-01-13T20:57:40.000Z</time></trkpt>
        <trkpt lat="29.5071916" lon="104.332038"><ele>650.17</ele><time>2026-01-13T20:57:42.000Z</time></trkpt>
        <trkpt lat="29.5073659" lon="104.3319552"><ele>650.96</ele><time>2026-01-13T20:57:44.000Z</time></trkpt>
        <trkpt lat="29.5075257" lon="104.3318953"><ele>651.76</ele><time>2026-01-13T20:57:46.000Z</time></trkpt>
        <trkpt lat="29.507658" lon="104.3318881"><ele>652.51</ele><time>2026-01-13T20:57:48.000Z</time></trkpt>
        <trkpt lat="29.5077537" lon="104.3319614"><ele>653.21</ele><time>2026-01-13T20:57:50.000Z</time></trkpt>
        <trkpt lat="29.50782" lon="104.3320769"><ele>653.98</ele><time>2026-01-13T20:57:52.000Z</time></trkpt>
        <trkpt lat="29.5079002" lon="104.3322048"><ele>654.69</ele><time>2026-01-13T20:57:54.000Z</time></trkpt>
        <trkpt lat="29.5080228" lon="104.332277"><ele>655.19</ele><time>2026-01-13T20:57:56.000Z</time></trkpt>
        <trkpt lat="29.5081824" lon="104.3322778"><ele>656</ele><time>2026-01-13T20:57:58.000Z</time></trkpt>
        <trkpt lat="29.5083332" lon="104.3321961"><ele>657.08</ele><time>2026-01-13T20:58:00.000Z</time></trkpt>
        <trkpt lat="29.508456" lon="104.3320578"><ele>658.05</ele><time>2026-01-13T20:58:02.000Z</time></trkpt>
        <trkpt lat="29.508582" lon="104.3319156"><ele>659.01</ele><time>2026-01-13T20:58:04.000Z</time></trkpt>
        <trkpt lat="29.5087402" lon="104.3318163"><ele>659.83</ele><time>2026-01-13T20:58:06.000Z</time></trkpt>
        <trkpt lat="29.5089267" lon="104.3317615"><ele>660.74</ele><time>2026-01-13T20:58:08.000Z</time></trkpt>
        <trkpt lat="29.5091358" lon="104.3317513"><ele>661.9</ele><time>2026-01-13T20:58:10.000Z</time></trkpt>
        <trkpt lat="29.509341" lon="104.331766"><ele>663.07</ele><time>2026-01-13T20:58:12.000Z</time></trkpt>
        <trkpt lat="29.5095149" lon="104.3317985"><ele>664.01</ele><time>2026-01-13T20:58:14.000Z</time></trkpt>
        <trkpt lat="29.509659" lon="104.3318151"><ele>665.2</ele><time>2026-01-13T20:58:16.000Z</time></trkpt>
        <trkpt lat="29.5097823" lon="104.3317269"><ele>666.58</ele><time>2026-01-13T20:58:18.000Z</time></trkpt>
        <trkpt lat="29.5098743" lon="104.3315621"><ele>667.97</ele><time>2026-01-13T20:58:20.000Z</time></trkpt>
        <trkpt lat="29.5099471" lon="104.3313805"><ele>668.97</ele><time>2026-01-13T20:58:22.000Z</time></trkpt>
        <trkpt lat="29.5100427" lon="104.3312476"><ele>669.56</ele><time>2026-01-13T20:58:24.000Z</time></trkpt>
        <trkpt lat="29.5101809" lon="104.3311761"><ele>669.98</ele><time>2026-01-13T20:58:26.000Z</time></trkpt>
        <trkpt lat="29.5103292" lon="104.3311383"><ele>670.28</ele><time>2026-01-13T20:58:28.000Z</time></trkpt>
        <trkpt lat="29.5104655" lon="104.3311196"><ele>670.56</ele><time>2026-01-13T20:58:30.000Z</time></trkpt>
        <trkpt lat="29.5106001" lon="104.3311221"><ele>670.69</ele><time>2026-01-13T20:58:32.000Z</time></trkpt>
        <trkpt lat="29.5107564" lon="104.331157"><ele>670.92</ele><time>2026-01-13T20:58:34.000Z</time></trkpt>
        <trkpt lat="29.5109446" lon="104.331213"><ele>671.12</ele><time>2026-01-13T20:58:36.000Z</time></trkpt>
        <trkpt lat="29.5111368" lon="104.3312501"><ele>671.75</ele><time>2026-01-13T20:58:38.000Z</time></trkpt>
        <trkpt lat="29.5113332" lon="104.3312416"><ele>672.82</ele><time>2026-01-13T20:58:40.000Z</time></trkpt>
        <trkpt lat="29.5115345" lon="104.3312304"><ele>674.01</ele><time>2026-01-13T20:58:42.000Z</time></trkpt>
        <trkpt lat="29.5117132" lon="104.3312558"><ele>675.32</ele><time>2026-01-13T20:58:44.000Z</time></trkpt>
        <trkpt lat="29.511879" lon="104.3313326"><ele>676.4</ele><time>2026-01-13T20:58:46.000Z</time></trkpt>
        <trkpt lat="29.5120164" lon="104.3313957"><ele>678.01</ele><time>2026-01-13T20:58:48.000Z</time></trkpt>
        <trkpt lat="29.5121158" lon="104.3314481"><ele>679.53</ele><time>2026-01-13T20:58:50.000Z</time></trkpt>
        <trkpt lat="29.5125876" lon="104.3315229"><ele>680.82</ele><time>2026-01-13T20:59:04.000Z</time></trkpt>
        <trkpt lat="29.5126674" lon="104.3315948"><ele>708.48</ele><time>2026-01-13T20:59:07.000Z</time></trkpt>
        <trkpt lat="29.5126353" lon="104.331693"><ele>717.45</ele><time>2026-01-13T20:59:11.000Z</time></trkpt>
        <trkpt lat="29.5125877" lon="104.331856"><ele>724.81</ele><time>2026-01-13T20:59:13.000Z</time></trkpt>
        <trkpt lat="29.5125402" lon="104.332037"><ele>730.61</ele><time>2026-01-13T20:59:15.000Z</time></trkpt>
        <trkpt lat="29.5125073" lon="104.3322309"><ele>732.42</ele><time>2026-01-13T20:59:17.000Z</time></trkpt>
        <trkpt lat="29.5124774" lon="104.3324437"><ele>733.56</ele><time>2026-01-13T20:59:19.000Z</time></trkpt>
        <trkpt lat="29.5124932" lon="104.3326531"><ele>734.33</ele><time>2026-01-13T20:59:21.000Z</time></trkpt>
        <trkpt lat="29.5125312" lon="104.3328609"><ele>734.57</ele><time>2026-01-13T20:59:23.000Z</time></trkpt>
        <trkpt lat="29.5125629" lon="104.333038"><ele>733.26</ele><time>2026-01-13T20:59:25.000Z</time></trkpt>
        <trkpt lat="29.5125481" lon="104.3331864"><ele>730.48</ele><time>2026-01-13T20:59:27.000Z</time></trkpt>
        <trkpt lat="29.5124746" lon="104.3333152"><ele>728.01</ele><time>2026-01-13T20:59:29.000Z</time></trkpt>
        <trkpt lat="29.5123698" lon="104.3334334"><ele>725.64</ele><time>2026-01-13T20:59:31.000Z</time></trkpt>
        <trkpt lat="29.5122519" lon="104.3335258"><ele>723.44</ele><time>2026-01-13T20:59:33.000Z</time></trkpt>
        <trkpt lat="29.5121181" lon="104.3335611"><ele>721.44</ele><time>2026-01-13T20:59:35.000Z</time></trkpt>
        <trkpt lat="29.5119661" lon="104.3335434"><ele>719.51</ele><time>2026-01-13T20:59:37.000Z</time></trkpt>
        <trkpt lat="29.5118053" lon="104.3335382"><ele>718.08</ele><time>2026-01-13T20:59:39.000Z</time></trkpt>
        <trkpt lat="29.5116504" lon="104.3335767"><ele>717</ele><time>2026-01-13T20:59:41.000Z</time></trkpt>
        <trkpt lat="29.5115288" lon="104.3336925"><ele>716.11</ele><time>2026-01-13T20:59:43.000Z</time></trkpt>
        <trkpt lat="29.5114702" lon="104.3338734"><ele>715.47</ele><time>2026-01-13T20:59:45.000Z</time></trkpt>
        <trkpt lat="29.5114423" lon="104.3340535"><ele>714.63</ele><time>2026-01-13T20:59:47.000Z</time></trkpt>
        <trkpt lat="29.5113989" lon="104.3341894"><ele>713.84</ele><time>2026-01-13T20:59:49.000Z</time></trkpt>
        <trkpt lat="29.5112928" lon="104.3342804"><ele>713.14</ele><time>2026-01-13T20:59:51.000Z</time></trkpt>
        <trkpt lat="29.5111307" lon="104.3343199"><ele>712.32</ele><time>2026-01-13T20:59:53.000Z</time></trkpt>
        <trkpt lat="29.5109565" lon="104.3343206"><ele>711.51</ele><time>2026-01-13T20:59:55.000Z</time></trkpt>
        <trkpt lat="29.5108088" lon="104.3343253"><ele>710.61</ele><time>2026-01-13T20:59:57.000Z</time></trkpt>
        <trkpt lat="29.5106776" lon="104.3343526"><ele>709.78</ele><time>2026-01-13T20:59:59.000Z</time></trkpt>
        <trkpt lat="29.5105541" lon="104.3344251"><ele>708.97</ele><time>2026-01-13T21:00:01.000Z</time></trkpt>
        <trkpt lat="29.5104794" lon="104.3345985"><ele>708.13</ele><time>2026-01-13T21:00:03.000Z</time></trkpt>
        <trkpt lat="29.5104796" lon="104.3348159"><ele>707.35</ele><time>2026-01-13T21:00:05.000Z</time></trkpt>
        <trkpt lat="29.5105132" lon="104.335041"><ele>706.8</ele><time>2026-01-13T21:00:07.000Z</time></trkpt>
        <trkpt lat="29.5105581" lon="104.3352468"><ele>706.24</ele><time>2026-01-13T21:00:09.000Z</time></trkpt>
        <trkpt lat="29.5106" lon="104.3354101"><ele>705.65</ele><time>2026-01-13T21:00:11.000Z</time></trkpt>
        <trkpt lat="29.5106172" lon="104.3355389"><ele>705.03</ele><time>2026-01-13T21:00:13.000Z</time></trkpt>
        <trkpt lat="29.5105796" lon="104.3356823"><ele>704.42</ele><time>2026-01-13T21:00:15.000Z</time></trkpt>
        <trkpt lat="29.5104815" lon="104.3357946"><ele>704.03</ele><time>2026-01-13T21:00:17.000Z</time></trkpt>
        <trkpt lat="29.510331" lon="104.3358436"><ele>703.67</ele><time>2026-01-13T21:00:19.000Z</time></trkpt>
        <trkpt lat="29.5101504" lon="104.3358391"><ele>703.14</ele><time>2026-01-13T21:00:21.000Z</time></trkpt>
        <trkpt lat="29.5099735" lon="104.3358209"><ele>702.54</ele><time>2026-01-13T21:00:23.000Z</time></trkpt>
        <trkpt lat="29.5098281" lon="104.3358155"><ele>701.88</ele><time>2026-01-13T21:00:25.000Z</time></trkpt>
        <trkpt lat="29.5097096" lon="104.3358246"><ele>701.1</ele><time>2026-01-13T21:00:27.000Z</time></trkpt>
        <trkpt lat="29.5096156" lon="104.3358771"><ele>700.27</ele><time>2026-01-13T21:00:29.000Z</time></trkpt>
        <trkpt lat="29.5095573" lon="104.3360067"><ele>699.38</ele><time>2026-01-13T21:00:31.000Z</time></trkpt>
        <trkpt lat="29.5095311" lon="104.3361968"><ele>698.58</ele><time>2026-01-13T21:00:33.000Z</time></trkpt>
        <trkpt lat="29.5095051" lon="104.3364149"><ele>697.79</ele><time>2026-01-13T21:00:35.000Z</time></trkpt>
        <trkpt lat="29.5094734" lon="104.3366356"><ele>696.97</ele><time>2026-01-13T21:00:37.000Z</time></trkpt>
        <trkpt lat="29.5094152" lon="104.3368484"><ele>696.25</ele><time>2026-01-13T21:00:39.000Z</time></trkpt>
        <trkpt lat="29.5093333" lon="104.3370336"><ele>695.54</ele><time>2026-01-13T21:00:41.000Z</time></trkpt>
        <trkpt lat="29.509234" lon="104.3371821"><ele>694.97</ele><time>2026-01-13T21:00:43.000Z</time></trkpt>
        <trkpt lat="29.5091421" lon="104.3373145"><ele>694.35</ele><time>2026-01-13T21:00:45.000Z</time></trkpt>
        <trkpt lat="29.5090956" lon="104.3374568"><ele>693.63</ele><time>2026-01-13T21:00:47.000Z</time></trkpt>
        <trkpt lat="29.5091254" lon="104.3376479"><ele>692.89</ele><time>2026-01-13T21:00:49.000Z</time></trkpt>
        <trkpt lat="29.5092063" lon="104.337821"><ele>692.33</ele><time>2026-01-13T21:00:51.000Z</time></trkpt>
        <trkpt lat="29.50927" lon="104.3379822"><ele>691.91</ele><time>2026-01-13T21:00:53.000Z</time></trkpt>
        <trkpt lat="29.5092786" lon="104.3381525"><ele>691.53</ele><time>2026-01-13T21:00:55.000Z</time></trkpt>
        <trkpt lat="29.509223" lon="104.3383494"><ele>691.1</ele><time>2026-01-13T21:00:57.000Z</time></trkpt>
        <trkpt lat="29.5091167" lon="104.3385397"><ele>690.77</ele><time>2026-01-13T21:00:59.000Z</time></trkpt>
        <trkpt lat="29.5089873" lon="104.3387063"><ele>690.51</ele><time>2026-01-13T21:01:01.000Z</time></trkpt>
        <trkpt lat="29.5088729" lon="104.3388666"><ele>690.22</ele><time>2026-01-13T21:01:03.000Z</time></trkpt>
        <trkpt lat="29.5088254" lon="104.3390541"><ele>689.9</ele><time>2026-01-13T21:01:05.000Z</time></trkpt>
        <trkpt lat="29.5088433" lon="104.3392642"><ele>689.63</ele><time>2026-01-13T21:01:07.000Z</time></trkpt>
        <trkpt lat="29.5088937" lon="104.3394766"><ele>689.24</ele><time>2026-01-13T21:01:09.000Z</time></trkpt>
        <trkpt lat="29.5089526" lon="104.3396951"><ele>688.67</ele><time>2026-01-13T21:01:11.000Z</time></trkpt>
        <trkpt lat="29.5090061" lon="104.3399245"><ele>688.1</ele><time>2026-01-13T21:01:13.000Z</time></trkpt>
        <trkpt lat="29.5090548" lon="104.3401496"><ele>687.49</ele><time>2026-01-13T21:01:15.000Z</time></trkpt>
        <trkpt lat="29.5091011" lon="104.3403562"><ele>686.87</ele><time>2026-01-13T21:01:17.000Z</time></trkpt>
        <trkpt lat="29.5091342" lon="104.3405565"><ele>686.29</ele><time>2026-01-13T21:01:19.000Z</time></trkpt>
        <trkpt lat="29.509162" lon="104.340765"><ele>685.78</ele><time>2026-01-13T21:01:21.000Z</time></trkpt>
        <trkpt lat="29.5091866" lon="104.3409994"><ele>685.32</ele><time>2026-01-13T21:01:23.000Z</time></trkpt>
        <trkpt lat="29.5092146" lon="104.341251"><ele>684.91</ele><time>2026-01-13T21:01:25.000Z</time></trkpt>
        <trkpt lat="29.5092315" lon="104.3415163"><ele>684.53</ele><time>2026-01-13T21:01:27.000Z</time></trkpt>
        <trkpt lat="29.5092517" lon="104.3417746"><ele>684.22</ele><time>2026-01-13T21:01:29.000Z</time></trkpt>
        <trkpt lat="29.5092537" lon="104.3420285"><ele>683.93</ele><time>2026-01-13T21:01:31.000Z</time></trkpt>
        <trkpt lat="29.509275" lon="104.3422605"><ele>683.51</ele><time>2026-01-13T21:01:33.000Z</time></trkpt>
        <trkpt lat="29.5093102" lon="104.3424871"><ele>683.13</ele><time>2026-01-13T21:01:35.000Z</time></trkpt>
        <trkpt lat="29.5093651" lon="104.3427042"><ele>682.72</ele><time>2026-01-13T21:01:37.000Z</time></trkpt>
        <trkpt lat="29.5094417" lon="104.3429256"><ele>682.34</ele><time>2026-01-13T21:01:39.000Z</time></trkpt>
        <trkpt lat="29.5095241" lon="104.3431491"><ele>682.01</ele><time>2026-01-13T21:01:41.000Z</time></trkpt>
        <trkpt lat="29.5095934" lon="104.343362"><ele>681.65</ele><time>2026-01-13T21:01:43.000Z</time></trkpt>
        <trkpt lat="29.5096513" lon="104.3435684"><ele>681.3</ele><time>2026-01-13T21:01:45.000Z</time></trkpt>
        <trkpt lat="29.5096939" lon="104.3437619"><ele>680.92</ele><time>2026-01-13T21:01:47.000Z</time></trkpt>
        <trkpt lat="29.509707" lon="104.3439382"><ele>680.31</ele><time>2026-01-13T21:01:49.000Z</time></trkpt>
        <trkpt lat="29.5096622" lon="104.3441091"><ele>679.7</ele><time>2026-01-13T21:01:51.000Z</time></trkpt>
        <trkpt lat="29.5095647" lon="104.3442819"><ele>679.18</ele><time>2026-01-13T21:01:53.000Z</time></trkpt>
        <trkpt lat="29.5094285" lon="104.3444433"><ele>678.78</ele><time>2026-01-13T21:01:55.000Z</time></trkpt>
        <trkpt lat="29.5092549" lon="104.3445914"><ele>678.41</ele><time>2026-01-13T21:01:57.000Z</time></trkpt>
        <trkpt lat="29.5090598" lon="104.3447135"><ele>678.02</ele><time>2026-01-13T21:01:59.000Z</time></trkpt>
        <trkpt lat="29.5088494" lon="104.3448098"><ele>677.7</ele><time>2026-01-13T21:02:01.000Z</time></trkpt>
        <trkpt lat="29.5086182" lon="104.3448812"><ele>677.27</ele><time>2026-01-13T21:02:03.000Z</time></trkpt>
        <trkpt lat="29.5084061" lon="104.344946"><ele>676.88</ele><time>2026-01-13T21:02:05.000Z</time></trkpt>
        <trkpt lat="29.5082301" lon="104.3450442"><ele>676.54</ele><time>2026-01-13T21:02:07.000Z</time></trkpt>
        <trkpt lat="29.5080898" lon="104.3451983"><ele>676.25</ele><time>2026-01-13T21:02:09.000Z</time></trkpt>
        <trkpt lat="29.5079747" lon="104.3453723"><ele>676</ele><time>2026-01-13T21:02:11.000Z</time></trkpt>
        <trkpt lat="29.5078649" lon="104.3455186"><ele>675.77</ele><time>2026-01-13T21:02:13.000Z</time></trkpt>
        <trkpt lat="29.5077447" lon="104.3456043"><ele>675.48</ele><time>2026-01-13T21:02:15.000Z</time></trkpt>
        <trkpt lat="29.5076077" lon="104.345597"><ele>675.08</ele><time>2026-01-13T21:02:17.000Z</time></trkpt>
        <trkpt lat="29.507438" lon="104.3455108"><ele>674.58</ele><time>2026-01-13T21:02:19.000Z</time></trkpt>
        <trkpt lat="29.5072816" lon="104.3453798"><ele>674.09</ele><time>2026-01-13T21:02:21.000Z</time></trkpt>
        <trkpt lat="29.5071709" lon="104.3452068"><ele>673.57</ele><time>2026-01-13T21:02:23.000Z</time></trkpt>
        <trkpt lat="29.5071083" lon="104.3450073"><ele>672.82</ele><time>2026-01-13T21:02:25.000Z</time></trkpt>
        <trkpt lat="29.5070575" lon="104.3448011"><ele>672.04</ele><time>2026-01-13T21:02:27.000Z</time></trkpt>
        <trkpt lat="29.5069772" lon="104.3445991"><ele>671.36</ele><time>2026-01-13T21:02:29.000Z</time></trkpt>
        <trkpt lat="29.5068361" lon="104.3444595"><ele>670.52</ele><time>2026-01-13T21:02:31.000Z</time></trkpt>
        <trkpt lat="29.5066523" lon="104.3444103"><ele>669.58</ele><time>2026-01-13T21:02:33.000Z</time></trkpt>
        <trkpt lat="29.5064657" lon="104.3444459"><ele>668.55</ele><time>2026-01-13T21:02:35.000Z</time></trkpt>
        <trkpt lat="29.5062823" lon="104.3445544"><ele>667.44</ele><time>2026-01-13T21:02:37.000Z</time></trkpt>
        <trkpt lat="29.5061018" lon="104.344686"><ele>666.41</ele><time>2026-01-13T21:02:39.000Z</time></trkpt>
        <trkpt lat="29.5059266" lon="104.3448032"><ele>665.21</ele><time>2026-01-13T21:02:41.000Z</time></trkpt>
        <trkpt lat="29.5057957" lon="104.344925"><ele>663.83</ele><time>2026-01-13T21:02:43.000Z</time></trkpt>
        <trkpt lat="29.5057267" lon="104.3450833"><ele>662.58</ele><time>2026-01-13T21:02:45.000Z</time></trkpt>
        <trkpt lat="29.5056916" lon="104.3452494"><ele>661.43</ele><time>2026-01-13T21:02:47.000Z</time></trkpt>
        <trkpt lat="29.5056347" lon="104.3454181"><ele>660.51</ele><time>2026-01-13T21:02:49.000Z</time></trkpt>
        <trkpt lat="29.5055123" lon="104.3455559"><ele>659.56</ele><time>2026-01-13T21:02:51.000Z</time></trkpt>
        <trkpt lat="29.5053135" lon="104.3456767"><ele>658.68</ele><time>2026-01-13T21:02:53.000Z</time></trkpt>
        <trkpt lat="29.5050955" lon="104.3457856"><ele>657.75</ele><time>2026-01-13T21:02:55.000Z</time></trkpt>
        <trkpt lat="29.5048881" lon="104.3459106"><ele>656.88</ele><time>2026-01-13T21:02:57.000Z</time></trkpt>
        <trkpt lat="29.5047007" lon="104.346044"><ele>656.12</ele><time>2026-01-13T21:02:59.000Z</time></trkpt>
        <trkpt lat="29.504547" lon="104.3461726"><ele>655.27</ele><time>2026-01-13T21:03:01.000Z</time></trkpt>
        <trkpt lat="29.5044313" lon="104.3463342"><ele>654.21</ele><time>2026-01-13T21:03:03.000Z</time></trkpt>
        <trkpt lat="29.5043334" lon="104.346499"><ele>653.06</ele><time>2026-01-13T21:03:05.000Z</time></trkpt>
        <trkpt lat="29.5042387" lon="104.346666"><ele>651.79</ele><time>2026-01-13T21:03:07.000Z</time></trkpt>
        <trkpt lat="29.5041356" lon="104.3468305"><ele>650.75</ele><time>2026-01-13T21:03:09.000Z</time></trkpt>
        <trkpt lat="29.5040302" lon="104.3469822"><ele>649.94</ele><time>2026-01-13T21:03:11.000Z</time></trkpt>
        <trkpt lat="29.5038813" lon="104.3471206"><ele>649.33</ele><time>2026-01-13T21:03:13.000Z</time></trkpt>
        <trkpt lat="29.5036928" lon="104.3472217"><ele>648.72</ele><time>2026-01-13T21:03:15.000Z</time></trkpt>
        <trkpt lat="29.5035054" lon="104.3473267"><ele>648.14</ele><time>2026-01-13T21:03:17.000Z</time></trkpt>
        <trkpt lat="29.5033506" lon="104.3474462"><ele>647.74</ele><time>2026-01-13T21:03:19.000Z</time></trkpt>
        <trkpt lat="29.5032498" lon="104.3476024"><ele>647.57</ele><time>2026-01-13T21:03:21.000Z</time></trkpt>
        <trkpt lat="29.5032179" lon="104.3477748"><ele>647.53</ele><time>2026-01-13T21:03:23.000Z</time></trkpt>
        <trkpt lat="29.5031631" lon="104.3479139"><ele>647.9</ele><time>2026-01-13T21:03:25.000Z</time></trkpt>
        <trkpt lat="29.5030621" lon="104.3479335"><ele>648.11</ele><time>2026-01-13T21:03:27.000Z</time></trkpt>
        <trkpt lat="29.5029738" lon="104.3478145"><ele>648.16</ele><time>2026-01-13T21:03:29.000Z</time></trkpt>
        <trkpt lat="29.5029566" lon="104.3476125"><ele>648.25</ele><time>2026-01-13T21:03:31.000Z</time></trkpt>
        <trkpt lat="29.5029822" lon="104.3473986"><ele>648.03</ele><time>2026-01-13T21:03:33.000Z</time></trkpt>
        <trkpt lat="29.5029894" lon="104.3472017"><ele>647.64</ele><time>2026-01-13T21:03:35.000Z</time></trkpt>
        <trkpt lat="29.5029649" lon="104.3470288"><ele>647.42</ele><time>2026-01-13T21:03:37.000Z</time></trkpt>
        <trkpt lat="29.5029201" lon="104.3468702"><ele>647.6</ele><time>2026-01-13T21:03:39.000Z</time></trkpt>
        <trkpt lat="29.502846" lon="104.3467424"><ele>647.75</ele><time>2026-01-13T21:03:41.000Z</time></trkpt>
        <trkpt lat="29.5027201" lon="104.3466568"><ele>647.97</ele><time>2026-01-13T21:03:43.000Z</time></trkpt>
        <trkpt lat="29.5025469" lon="104.3466206"><ele>648.06</ele><time>2026-01-13T21:03:45.000Z</time></trkpt>
        <trkpt lat="29.5023574" lon="104.3465772"><ele>648.27</ele><time>2026-01-13T21:03:47.000Z</time></trkpt>
        <trkpt lat="29.5021689" lon="104.3465127"><ele>648.43</ele><time>2026-01-13T21:03:49.000Z</time></trkpt>
        <trkpt lat="29.501991" lon="104.3464305"><ele>648.6</ele><time>2026-01-13T21:03:51.000Z</time></trkpt>
        <trkpt lat="29.5018233" lon="104.3463289"><ele>648.99</ele><time>2026-01-13T21:03:53.000Z</time></trkpt>
        <trkpt lat="29.5016694" lon="104.3462144"><ele>649.33</ele><time>2026-01-13T21:03:55.000Z</time></trkpt>
        <trkpt lat="29.5015221" lon="104.3461042"><ele>649.52</ele><time>2026-01-13T21:03:57.000Z</time></trkpt>
        <trkpt lat="29.501358" lon="104.3460391"><ele>649.62</ele><time>2026-01-13T21:03:59.000Z</time></trkpt>
        <trkpt lat="29.5011774" lon="104.3460637"><ele>649.61</ele><time>2026-01-13T21:04:01.000Z</time></trkpt>
        <trkpt lat="29.5010347" lon="104.3462"><ele>649.47</ele><time>2026-01-13T21:04:03.000Z</time></trkpt>
        <trkpt lat="29.5009239" lon="104.346374"><ele>649.43</ele><time>2026-01-13T21:04:05.000Z</time></trkpt>
        <trkpt lat="29.5008031" lon="104.346545"><ele>649.38</ele><time>2026-01-13T21:04:07.000Z</time></trkpt>
        <trkpt lat="29.500657" lon="104.3466852"><ele>649.32</ele><time>2026-01-13T21:04:09.000Z</time></trkpt>
        <trkpt lat="29.5004941" lon="104.3468081"><ele>649.27</ele><time>2026-01-13T21:04:11.000Z</time></trkpt>
        <trkpt lat="29.5003225" lon="104.3469557"><ele>649.21</ele><time>2026-01-13T21:04:13.000Z</time></trkpt>
        <trkpt lat="29.5001858" lon="104.3471257"><ele>649.13</ele><time>2026-01-13T21:04:15.000Z</time></trkpt>
        <trkpt lat="29.5000526" lon="104.3473005"><ele>649.04</ele><time>2026-01-13T21:04:17.000Z</time></trkpt>
        <trkpt lat="29.4998779" lon="104.3474725"><ele>648.85</ele><time>2026-01-13T21:04:19.000Z</time></trkpt>
        <trkpt lat="29.4996877" lon="104.3476177"><ele>648.69</ele><time>2026-01-13T21:04:21.000Z</time></trkpt>
        <trkpt lat="29.499489" lon="104.3477755"><ele>648.45</ele><time>2026-01-13T21:04:23.000Z</time></trkpt>
        <trkpt lat="29.4993033" lon="104.3479407"><ele>648.1</ele><time>2026-01-13T21:04:25.000Z</time></trkpt>
        <trkpt lat="29.499129" lon="104.3480757"><ele>647.75</ele><time>2026-01-13T21:04:27.000Z</time></trkpt>
        <trkpt lat="29.4990227" lon="104.3482202"><ele>647.37</ele><time>2026-01-13T21:04:29.000Z</time></trkpt>
        <trkpt lat="29.499029" lon="104.348373"><ele>647.19</ele><time>2026-01-13T21:04:31.000Z</time></trkpt>
        <trkpt lat="29.4991234" lon="104.3485205"><ele>647.28</ele><time>2026-01-13T21:04:33.000Z</time></trkpt>
        <trkpt lat="29.4992565" lon="104.3486615"><ele>647.35</ele><time>2026-01-13T21:04:35.000Z</time></trkpt>
        <trkpt lat="29.4993858" lon="104.3488012"><ele>647.36</ele><time>2026-01-13T21:04:37.000Z</time></trkpt>
        <trkpt lat="29.4994828" lon="104.3489223"><ele>647.43</ele><time>2026-01-13T21:04:39.000Z</time></trkpt>
        <trkpt lat="29.4994916" lon="104.3490048"><ele>647.53</ele><time>2026-01-13T21:04:53.000Z</time></trkpt>
        <trkpt lat="29.4994424" lon="104.3490827"><ele>649.22</ele><time>2026-01-13T21:05:11.000Z</time></trkpt>
        <trkpt lat="29.4993573" lon="104.3491627"><ele>652.65</ele><time>2026-01-13T21:05:21.000Z</time></trkpt>
        <trkpt lat="29.4993004" lon="104.3492533"><ele>655.94</ele><time>2026-01-13T21:05:35.000Z</time></trkpt>
        <trkpt lat="29.4993004" lon="104.3492533"><ele>655.94</ele><time>2026-01-13T21:06:13.000Z</time></trkpt>
      </trkseg>
  </trk>
</gpx>